Observation data for Claude 12 Southwest on 05/17/2018      Previous  Date  Next       Current Mesonet Observations  Soil Data  Daily Summary Page  Observations in Plain Language
KCL1 170500Z 13010KT 20/12 A3001 RMK A01 T02040124  RH  060%=      5-min Rain = 0
KCL1 170501Z 14010KT 20/12 A3001 RMK A01 T02030124  RH  060%=      5-min Rain = 0
KCL1 170502Z 14010KT 20/12 A3001 RMK A01 T02030124  RH  060%=      5-min Rain = 0
KCL1 170503Z 14011KT 20/12 A3001 RMK A01 T02030124  RH  060%=      5-min Rain = 0
KCL1 170504Z 14009KT 20/12 A3001 RMK A01 T02030124  RH  061%=      5-min Rain = 0
KCL1 170505Z 14011KT 20/12 A3001 RMK A01 T02030124  RH  061%=      5-min Rain = 0
KCL1 170506Z 14012KT 20/12 A3001 RMK A01 T02030124  RH  061%=      5-min Rain = 0
KCL1 170507Z 15008KT 20/13 A3001 RMK A01 T02030125  RH  061%=      5-min Rain = 0
KCL1 170508Z 14008KT 20/13 A3001 RMK A01 T02030125  RH  061%=      5-min Rain = 0
KCL1 170509Z 15007KT 20/12 A3001 RMK A01 T02020124  RH  061%=      5-min Rain = 0
KCL1 170510Z 15010KT 20/13 A3001 RMK A01 T02020125  RH  061%=      5-min Rain = 0
KCL1 170511Z 15009KT 20/13 A3001 RMK A01 T02020125  RH  061%=      5-min Rain = 0
KCL1 170512Z 15007KT 20/13 A3001 RMK A01 T02020125  RH  061%=      5-min Rain = 0
KCL1 170513Z 15007KT 20/13 A3001 RMK A01 T02010125  RH  061%=      5-min Rain = 0
KCL1 170514Z 15008KT 20/13 A3001 RMK A01 T02010125  RH  062%=      5-min Rain = 0
KCL1 170515Z 15010KT 20/13 A3001 RMK A01 T02000125  RH  062%=      5-min Rain = 0
KCL1 170516Z 14011KT 20/13 A3001 RMK A01 T02000126  RH  062%=      5-min Rain = 0
KCL1 170517Z 14012KT 20/13 A3001 RMK A01 T02010126  RH  062%=      5-min Rain = 0
KCL1 170518Z 14009KT 20/13 A3001 RMK A01 T02020126  RH  062%=      5-min Rain = 0
KCL1 170519Z 15008KT 20/13 A3001 RMK A01 T02020126  RH  062%=      5-min Rain = 0
KCL1 170520Z 14009KT 20/13 A3001 RMK A01 T02020126  RH  062%=      5-min Rain = 0
KCL1 170521Z 14011KT 20/13 A3001 RMK A01 T02020126  RH  062%=      5-min Rain = 0
KCL1 170522Z 14009KT 20/13 A3001 RMK A01 T02020127  RH  062%=      5-min Rain = 0
KCL1 170523Z 14009KT 20/13 A3001 RMK A01 T02010126  RH  062%=      5-min Rain = 0
KCL1 170524Z 14009KT 20/13 A3001 RMK A01 T02010126  RH  062%=      5-min Rain = 0
KCL1 170525Z 15009KT 20/13 A3001 RMK A01 T02000126  RH  062%=      5-min Rain = 0
KCL1 170526Z 14008KT 20/13 A3001 RMK A01 T02000126  RH  063%=      5-min Rain = 0
KCL1 170527Z 15009KT 20/13 A3001 RMK A01 T01990126  RH  063%=      5-min Rain = 0
KCL1 170528Z 15010KT 20/13 A3001 RMK A01 T01990126  RH  063%=      5-min Rain = 0
KCL1 170529Z 14008KT 20/13 A3001 RMK A01 T01990127  RH  063%=      5-min Rain = 0
KCL1 170530Z 14010KT 20/13 A30 RMK A01 T01980126  RH  063%=      5-min Rain = 0
KCL1 170531Z 14010KT 20/13 A30 RMK A01 T01980127  RH  063%=      5-min Rain = 0
KCL1 170532Z 14008KT 20/13 A30 RMK A01 T01980126  RH  063%=      5-min Rain = 0
KCL1 170533Z 14009KT 20/13 A30 RMK A01 T01980126  RH  063%=      5-min Rain = 0
KCL1 170534Z 14011KT 20/13 A30 RMK A01 T01980127  RH  063%=      5-min Rain = 0
KCL1 170535Z 14012KT 20/13 A30 RMK A01 T01980127  RH  064%=      5-min Rain = 0
KCL1 170536Z 14011KT 20/13 A30 RMK A01 T01990128  RH  064%=      5-min Rain = 0
KCL1 170537Z 14010KT 20/13 A30 RMK A01 T01990128  RH  063%=      5-min Rain = 0
KCL1 170538Z 14009KT 20/13 A30 RMK A01 T01990128  RH  063%=      5-min Rain = 0
KCL1 170539Z 14010KT 20/13 A30 RMK A01 T01980127  RH  064%=      5-min Rain = 0
KCL1 170540Z 15010KT 20/13 A30 RMK A01 T01980128  RH  064%=      5-min Rain = 0
KCL1 170541Z 14009KT 20/13 A30 RMK A01 T01980128  RH  064%=      5-min Rain = 0
KCL1 170542Z 15009KT 20/13 A30 RMK A01 T01980128  RH  064%=      5-min Rain = 0
KCL1 170543Z 15010KT 20/13 A30 RMK A01 T01970128  RH  064%=      5-min Rain = 0
KCL1 170544Z 15010KT 20/13 A30 RMK A01 T01970129  RH  065%=      5-min Rain = 0
KCL1 170545Z 15009KT 20/13 A30 RMK A01 T01970129  RH  065%=      5-min Rain = 0
KCL1 170546Z 14010KT 20/13 A30 RMK A01 T01960129  RH  065%=      5-min Rain = 0
KCL1 170547Z 14010KT 20/13 A30 RMK A01 T01960129  RH  065%=      5-min Rain = 0
KCL1 170548Z 14010KT 20/13 A30 RMK A01 T01960130  RH  065%=      5-min Rain = 0
KCL1 170549Z 14010KT 20/13 A30 RMK A01 T01960130  RH  065%=      5-min Rain = 0
KCL1 170550Z 14011KT 20/13 A30 RMK A01 T01960130  RH  065%=      5-min Rain = 0
KCL1 170551Z 14010KT 20/13 A30 RMK A01 T01960130  RH  066%=      5-min Rain = 0
KCL1 170552Z 14010KT 20/13 A30 RMK A01 T01960130  RH  066%=      5-min Rain = 0
KCL1 170553Z 15009KT 20/13 A30 RMK A01 T01960130  RH  066%=      5-min Rain = 0
KCL1 170554Z 14010KT 20/13 A30 RMK A01 T01950130  RH  066%=      5-min Rain = 0
KCL1 170555Z 15009KT 20/13 A30 RMK A01 T01950130  RH  066%=      5-min Rain = 0
KCL1 170556Z 15008KT 20/13 A30 RMK A01 T01950130  RH  066%=      5-min Rain = 0
KCL1 170557Z 15010KT 20/13 A30 RMK A01 T01950130  RH  066%=      5-min Rain = 0
KCL1 170558Z 15012KT 20/13 A30 RMK A01 T01950130  RH  066%=      5-min Rain = 0
KCL1 170559Z 15008KT 20/13 A30 RMK A01 T01960131  RH  066%=      5-min Rain = 0
KCL1 170600Z 15009KT 20/13 A30 RMK A01 T01960131  RH  066%=      5-min Rain = 0
KCL1 170601Z 15009KT 20/13 A30 RMK A01 T01960131  RH  066%=      5-min Rain = 0
KCL1 170602Z 15009KT 20/13 A30 RMK A01 T01950130  RH  066%=      5-min Rain = 0
KCL1 170603Z 15010KT 20/13 A30 RMK A01 T01950131  RH  066%=      5-min Rain = 0
KCL1 170604Z 14010KT 20/13 A30 RMK A01 T01950131  RH  066%=      5-min Rain = 0
KCL1 170605Z 15009KT 20/13 A30 RMK A01 T01950131  RH  066%=      5-min Rain = 0
KCL1 170606Z 15009KT 20/13 A30 RMK A01 T01950131  RH  066%=      5-min Rain = 0
KCL1 170607Z 15009KT 20/13 A30 RMK A01 T01950131  RH  066%=      5-min Rain = 0
KCL1 170608Z 14008KT 20/13 A30 RMK A01 T01950131  RH  067%=      5-min Rain = 0
KCL1 170609Z 15012G17KT 20/13 A30 RMK A01 T01950131  RH  067%=      5-min Rain = 0
KCL1 170610Z 15011KT 20/13 A30 RMK A01 T01960132  RH  066%=      5-min Rain = 0
KCL1 170611Z 14008KT 20/13 A30 RMK A01 T01980132  RH  066%=      5-min Rain = 0
KCL1 170612Z 15007KT 20/13 A30 RMK A01 T01980132  RH  065%=      5-min Rain = 0
KCL1 170613Z 15007G12KT 20/13 A30 RMK A01 T01980132  RH  066%=      5-min Rain = 0
KCL1 170614Z 15008KT 20/13 A30 RMK A01 T01970132  RH  066%=      5-min Rain = 0
KCL1 170615Z 14009KT 20/13 A30 RMK A01 T01960132  RH  066%=      5-min Rain = 0
KCL1 170616Z 14008KT 20/13 A30 RMK A01 T01960132  RH  066%=      5-min Rain = 0
KCL1 170617Z 15010KT 20/13 A30 RMK A01 T01970132  RH  066%=      5-min Rain = 0
KCL1 170618Z 14007KT 20/13 A30 RMK A01 T01970133  RH  066%=      5-min Rain = 0
KCL1 170619Z 14007KT 20/13 A30 RMK A01 T01970133  RH  066%=      5-min Rain = 0
KCL1 170620Z 14008KT 20/13 A30 RMK A01 T01960133  RH  067%=      5-min Rain = 0
KCL1 170621Z 15010KT 20/13 A30 RMK A01 T01960134  RH  067%=      5-min Rain = 0
KCL1 170622Z 14009KT 20/13 A30 RMK A01 T01960134  RH  067%=      5-min Rain = 0
KCL1 170623Z 13007KT 20/13 A30 RMK A01 T01970134  RH  067%=      5-min Rain = 0
KCL1 170624Z 14009KT 20/13 A30 RMK A01 T01960134  RH  067%=      5-min Rain = 0
KCL1 170625Z 14009KT 20/13 A30 RMK A01 T01950134  RH  068%=      5-min Rain = 0
KCL1 170626Z 14009KT 19/13 A30 RMK A01 T01940134  RH  068%=      5-min Rain = 0
KCL1 170627Z 15009KT 19/14 A30 RMK A01 T01940135  RH  068%=      5-min Rain = 0
KCL1 170628Z 14009KT 19/14 A30 RMK A01 T01940135  RH  069%=      5-min Rain = 0
KCL1 170629Z 14007KT 19/13 A30 RMK A01 T01940134  RH  068%=      5-min Rain = 0
KCL1 170630Z 15009KT 19/14 A30 RMK A01 T01940135  RH  069%=      5-min Rain = 0
KCL1 170631Z 14008KT 19/14 A30 RMK A01 T01930135  RH  069%=      5-min Rain = 0
KCL1 170632Z 14008KT 19/14 A30 RMK A01 T01930135  RH  069%=      5-min Rain = 0
KCL1 170633Z 14007KT 19/14 A30 RMK A01 T01940135  RH  069%=      5-min Rain = 0
KCL1 170634Z 14006KT 19/14 A30 RMK A01 T01940135  RH  069%=      5-min Rain = 0
KCL1 170635Z 13008KT 19/14 A30 RMK A01 T01940136  RH  069%=      5-min Rain = 0
KCL1 170636Z 14006KT 19/14 A30 RMK A01 T01940135  RH  069%=      5-min Rain = 0
KCL1 170637Z 14007KT 19/14 A30 RMK A01 T01930135  RH  069%=      5-min Rain = 0
KCL1 170638Z 14007KT 19/14 A30 RMK A01 T01920135  RH  070%=      5-min Rain = 0
KCL1 170639Z 14007KT 19/14 A30 RMK A01 T01920136  RH  070%=      5-min Rain = 0
KCL1 170640Z 14007KT 19/14 A30 RMK A01 T01910135  RH  070%=      5-min Rain = 0
KCL1 170641Z 14009KT 19/14 A30 RMK A01 T01900135  RH  070%=      5-min Rain = 0
KCL1 170642Z 15008KT 19/14 A30 RMK A01 T01910136  RH  070%=      5-min Rain = 0
KCL1 170643Z 14008KT 19/14 A30 RMK A01 T01920136  RH  070%=      5-min Rain = 0
KCL1 170644Z 15007G12KT 19/14 A30 RMK A01 T01940136  RH  069%=      5-min Rain = 0
KCL1 170645Z 15010KT 20/14 A30 RMK A01 T01950136  RH  069%=      5-min Rain = 0
KCL1 170646Z 15009KT 20/14 A30 RMK A01 T01960137  RH  069%=      5-min Rain = 0
KCL1 170647Z 14009KT 20/14 A30 RMK A01 T01970137  RH  068%=      5-min Rain = 0
KCL1 170648Z 15007KT 20/14 A30 RMK A01 T01980137  RH  068%=      5-min Rain = 0
KCL1 170649Z 15007KT 20/14 A30 RMK A01 T01980136  RH  068%=      5-min Rain = 0
KCL1 170650Z 13006KT 20/14 A30 RMK A01 T01980137  RH  068%=      5-min Rain = 0
KCL1 170651Z 14009KT 20/14 A30 RMK A01 T01970136  RH  068%=      5-min Rain = 0
KCL1 170652Z 16009KT 20/14 A30 RMK A01 T01970136  RH  068%=      5-min Rain = 0
KCL1 170653Z 15007KT 20/14 A30 RMK A01 T01970136  RH  068%=      5-min Rain = 0
KCL1 170654Z 16007KT 20/14 A30 RMK A01 T01970136  RH  068%=      5-min Rain = 0
KCL1 170655Z 16006KT 20/14 A30 RMK A01 T01970136  RH  068%=      5-min Rain = 0
KCL1 170656Z 16005KT 20/14 A30 RMK A01 T01960136  RH  068%=      5-min Rain = 0
KCL1 170657Z 15008G13KT 20/14 A30 RMK A01 T01960135  RH  068%=      5-min Rain = 0
KCL1 170658Z 15008KT 20/14 A30 RMK A01 T01960136  RH  068%=      5-min Rain = 0
KCL1 170659Z 15007KT 20/14 A30 RMK A01 T01960136  RH  068%=      5-min Rain = 0
KCL1 170700Z 14008KT 20/14 A30 RMK A01 T01960136  RH  068%=      5-min Rain = 0
KCL1 170701Z 15009KT 20/14 A30 RMK A01 T01950136  RH  069%=      5-min Rain = 0
KCL1 170702Z 14007KT 20/14 A30 RMK A01 T01950136  RH  069%=      5-min Rain = 0
KCL1 170703Z 15008KT 20/14 A30 RMK A01 T01950136  RH  068%=      5-min Rain = 0
KCL1 170704Z 15009KT 20/14 A30 RMK A01 T01950135  RH  068%=      5-min Rain = 0
KCL1 170705Z 15010KT 20/14 A30 RMK A01 T01960135  RH  068%=      5-min Rain = 0
KCL1 170706Z 15011KT 20/14 A30 RMK A01 T01960136  RH  068%=      5-min Rain = 0
KCL1 170707Z 15009KT 20/14 A30 RMK A01 T01970136  RH  068%=      5-min Rain = 0
KCL1 170708Z 15011KT 20/14 A30 RMK A01 T01970136  RH  068%=      5-min Rain = 0
KCL1 170709Z 15009KT 20/14 A30 RMK A01 T01960136  RH  068%=      5-min Rain = 0
KCL1 170710Z 15009KT 20/14 A30 RMK A01 T01970136  RH  068%=      5-min Rain = 0
KCL1 170711Z 15012KT 20/14 A30 RMK A01 T01970136  RH  068%=      5-min Rain = 0
KCL1 170712Z 16009KT 20/14 A30 RMK A01 T01970136  RH  068%=      5-min Rain = 0
KCL1 170713Z 16010KT 20/14 A30 RMK A01 T01970136  RH  068%=      5-min Rain = 0
KCL1 170714Z 15012KT 20/14 A30 RMK A01 T01970136  RH  068%=      5-min Rain = 0
KCL1 170715Z 15009KT 20/14 A30 RMK A01 T01970136  RH  068%=      5-min Rain = 0
KCL1 170716Z 15010KT 20/14 A30 RMK A01 T01960136  RH  068%=      5-min Rain = 0
KCL1 170717Z 15010KT 20/14 A30 RMK A01 T01960135  RH  068%=      5-min Rain = 0
KCL1 170718Z 15010KT 20/13 A30 RMK A01 T01960134  RH  068%=      5-min Rain = 0
KCL1 170719Z 15009KT 20/14 A30 RMK A01 T01960135  RH  068%=      5-min Rain = 0
KCL1 170720Z 15009KT 20/14 A30 RMK A01 T01960135  RH  068%=      5-min Rain = 0
KCL1 170721Z 15009KT 20/14 A30 RMK A01 T01950135  RH  068%=      5-min Rain = 0
KCL1 170722Z 15010KT 20/14 A30 RMK A01 T01950135  RH  068%=      5-min Rain = 0
KCL1 170723Z 15012KT 19/13 A30 RMK A01 T01940134  RH  068%=      5-min Rain = 0
KCL1 170724Z 15010KT 19/13 A30 RMK A01 T01940134  RH  068%=      5-min Rain = 0
KCL1 170725Z 15008KT 19/13 A30 RMK A01 T01940134  RH  068%=      5-min Rain = 0
KCL1 170726Z 15013KT 19/13 A30 RMK A01 T01940134  RH  068%=      5-min Rain = 0
KCL1 170727Z 15012KT 19/13 A30 RMK A01 T01940134  RH  068%=      5-min Rain = 0
KCL1 170728Z 15009KT 20/13 A30 RMK A01 T01950133  RH  067%=      5-min Rain = 0
KCL1 170729Z 15007KT 20/13 A30 RMK A01 T01950133  RH  067%=      5-min Rain = 0
KCL1 170730Z 16011G16KT 19/13 A30 RMK A01 T01940133  RH  067%=      5-min Rain = 0
KCL1 170731Z 15009G14KT 19/13 A30 RMK A01 T01940133  RH  067%=      5-min Rain = 0
KCL1 170732Z 15010KT 20/13 A30 RMK A01 T01950133  RH  067%=      5-min Rain = 0
KCL1 170733Z 15010KT 20/13 A30 RMK A01 T01950133  RH  068%=      5-min Rain = 0
KCL1 170734Z 15010KT 19/13 A30 RMK A01 T01940133  RH  068%=      5-min Rain = 0
KCL1 170735Z 16011KT 19/13 A30 RMK A01 T01930132  RH  068%=      5-min Rain = 0
KCL1 170736Z 15011KT 19/13 A30 RMK A01 T01940133  RH  068%=      5-min Rain = 0
KCL1 170737Z 15010KT 19/13 A30 RMK A01 T01930132  RH  068%=      5-min Rain = 0
KCL1 170738Z 15012KT 19/13 A30 RMK A01 T01930132  RH  068%=      5-min Rain = 0
KCL1 170739Z 15012KT 19/13 A30 RMK A01 T01940132  RH  068%=      5-min Rain = 0
KCL1 170740Z 15010KT 19/13 A30 RMK A01 T01940133  RH  068%=      5-min Rain = 0
KCL1 170741Z 15009KT 19/13 A30 RMK A01 T01940133  RH  068%=      5-min Rain = 0
KCL1 170742Z 15012KT 19/13 A30 RMK A01 T01930133  RH  068%=      5-min Rain = 0
KCL1 170743Z 15011KT 19/13 A30 RMK A01 T01930133  RH  068%=      5-min Rain = 0
KCL1 170744Z 15011KT 19/13 A30 RMK A01 T01930132  RH  068%=      5-min Rain = 0
KCL1 170745Z 15010KT 19/13 A30 RMK A01 T01930132  RH  068%=      5-min Rain = 0
KCL1 170746Z 15008KT 19/13 A30 RMK A01 T01930133  RH  068%=      5-min Rain = 0
KCL1 170747Z 15010KT 19/13 A30 RMK A01 T01930134  RH  069%=      5-min Rain = 0
KCL1 170748Z 15009KT 19/13 A30 RMK A01 T01920134  RH  069%=      5-min Rain = 0
KCL1 170749Z 15010KT 19/13 A30 RMK A01 T01920134  RH  069%=      5-min Rain = 0
KCL1 170750Z 15010KT 19/13 A30 RMK A01 T01920134  RH  069%=      5-min Rain = 0
KCL1 170751Z 15010KT 19/13 A30 RMK A01 T01910133  RH  069%=      5-min Rain = 0
KCL1 170752Z 14013KT 19/13 A30 RMK A01 T01910134  RH  069%=      5-min Rain = 0
KCL1 170753Z 15012KT 19/13 A30 RMK A01 T01910133  RH  069%=      5-min Rain = 0
KCL1 170754Z 14011KT 19/13 A30 RMK A01 T01920133  RH  069%=      5-min Rain = 0
KCL1 170755Z 15011KT 19/13 A30 RMK A01 T01920134  RH  069%=      5-min Rain = 0
KCL1 170756Z 15010KT 19/13 A30 RMK A01 T01920134  RH  069%=      5-min Rain = 0
KCL1 170757Z 15010KT 19/14 A30 RMK A01 T01920135  RH  069%=      5-min Rain = 0
KCL1 170758Z 14009KT 19/14 A30 RMK A01 T01910135  RH  070%=      5-min Rain = 0
KCL1 170759Z 14009KT 19/14 A2999 RMK A01 T01900135  RH  070%=      5-min Rain = 0
KCL1 170800Z 14009KT 19/14 A2999 RMK A01 T01890135  RH  071%=      5-min Rain = 0
KCL1 170801Z 14010KT 19/14 A2999 RMK A01 T01890135  RH  071%=      5-min Rain = 0
KCL1 170802Z 15010KT 19/14 A2999 RMK A01 T01880135  RH  071%=      5-min Rain = 0
KCL1 170803Z 14011KT 19/14 A2999 RMK A01 T01880135  RH  071%=      5-min Rain = 0
KCL1 170804Z 14008KT 19/14 A2999 RMK A01 T01880135  RH  071%=      5-min Rain = 0
KCL1 170805Z 15010KT 19/14 A2999 RMK A01 T01890135  RH  071%=      5-min Rain = 0
KCL1 170806Z 14008KT 19/14 A2999 RMK A01 T01890135  RH  071%=      5-min Rain = 0
KCL1 170807Z 14007KT 19/14 A2999 RMK A01 T01880135  RH  071%=      5-min Rain = 0
KCL1 170808Z 15007KT 19/14 A2999 RMK A01 T01870135  RH  071%=      5-min Rain = 0
KCL1 170809Z 15008KT 19/14 A2999 RMK A01 T01870135  RH  072%=      5-min Rain = 0
KCL1 170810Z 14007KT 19/14 A2999 RMK A01 T01860135  RH  072%=      5-min Rain = 0
KCL1 170811Z 14008KT 19/14 A2999 RMK A01 T01860135  RH  072%=      5-min Rain = 0
KCL1 170812Z 14010KT 19/14 A2999 RMK A01 T01850135  RH  072%=      5-min Rain = 0
KCL1 170813Z 15009G14KT 19/14 A2999 RMK A01 T01850135  RH  072%=      5-min Rain = 0
KCL1 170814Z 15009KT 19/14 A2999 RMK A01 T01850135  RH  072%=      5-min Rain = 0
KCL1 170815Z 14009KT 19/14 A2999 RMK A01 T01850135  RH  072%=      5-min Rain = 0
KCL1 170816Z 15008KT 19/14 A2999 RMK A01 T01860135  RH  072%=      5-min Rain = 0
KCL1 170817Z 14009KT 19/14 A2999 RMK A01 T01850135  RH  072%=      5-min Rain = 0
KCL1 170818Z 15009KT 19/14 A2999 RMK A01 T01850135  RH  073%=      5-min Rain = 0
KCL1 170819Z 15009KT 19/14 A2999 RMK A01 T01850135  RH  073%=      5-min Rain = 0
KCL1 170820Z 15008KT 19/14 A2999 RMK A01 T01850136  RH  073%=      5-min Rain = 0
KCL1 170821Z 14008KT 19/14 A2999 RMK A01 T01850135  RH  073%=      5-min Rain = 0
KCL1 170822Z 14007KT 19/14 A2999 RMK A01 T01850135  RH  073%=      5-min Rain = 0
KCL1 170823Z 14007KT 18/14 A2999 RMK A01 T01840135  RH  073%=      5-min Rain = 0
KCL1 170824Z 15008KT 18/14 A2999 RMK A01 T01830135  RH  074%=      5-min Rain = 0
KCL1 170825Z 15007KT 18/14 A2999 RMK A01 T01820135  RH  074%=      5-min Rain = 0
KCL1 170826Z 15007KT 18/14 A2999 RMK A01 T01820136  RH  074%=      5-min Rain = 0
KCL1 170827Z 14006KT 18/14 A2999 RMK A01 T01820136  RH  074%=      5-min Rain = 0
KCL1 170828Z 15007KT 18/14 A2999 RMK A01 T01820136  RH  075%=      5-min Rain = 0
KCL1 170829Z 15007KT 18/14 A2999 RMK A01 T01810136  RH  075%=      5-min Rain = 0
KCL1 170830Z 15007KT 18/14 A2999 RMK A01 T01810136  RH  075%=      5-min Rain = 0
KCL1 170831Z 15006KT 18/14 A2999 RMK A01 T01810136  RH  075%=      5-min Rain = 0
KCL1 170832Z 15007KT 18/14 A2999 RMK A01 T01800135  RH  075%=      5-min Rain = 0
KCL1 170833Z 15007KT 18/14 A2999 RMK A01 T01800136  RH  075%=      5-min Rain = 0
KCL1 170834Z 15007KT 18/14 A2999 RMK A01 T01800135  RH  075%=      5-min Rain = 0
KCL1 170835Z 15007KT 18/14 A2999 RMK A01 T01800136  RH  075%=      5-min Rain = 0
KCL1 170836Z 15007KT 18/14 A2999 RMK A01 T01790135  RH  075%=      5-min Rain = 0
KCL1 170837Z 15006KT 18/14 A2999 RMK A01 T01790135  RH  076%=      5-min Rain = 0
KCL1 170838Z 15006KT 18/14 A2999 RMK A01 T01790135  RH  076%=      5-min Rain = 0
KCL1 170839Z 15007KT 18/14 A2999 RMK A01 T01780135  RH  076%=      5-min Rain = 0
KCL1 170840Z 15007KT 18/14 A2999 RMK A01 T01780135  RH  076%=      5-min Rain = 0
KCL1 170841Z 15007KT 18/14 A2999 RMK A01 T01780135  RH  076%=      5-min Rain = 0
KCL1 170842Z 15008KT 18/14 A2999 RMK A01 T01780135  RH  076%=      5-min Rain = 0
KCL1 170843Z 15007KT 18/14 A2999 RMK A01 T01780135  RH  076%=      5-min Rain = 0
KCL1 170844Z 15007KT 18/14 A2999 RMK A01 T01780135  RH  076%=      5-min Rain = 0
KCL1 170845Z 16007KT 18/13 A2999 RMK A01 T01780134  RH  076%=      5-min Rain = 0
KCL1 170846Z 15007KT 18/13 A2999 RMK A01 T01780134  RH  075%=      5-min Rain = 0
KCL1 170847Z 15007KT 18/13 A2999 RMK A01 T01780134  RH  075%=      5-min Rain = 0
KCL1 170848Z 15008KT 18/13 A2999 RMK A01 T01780134  RH  075%=      5-min Rain = 0
KCL1 170849Z 14008KT 18/13 A2999 RMK A01 T01780134  RH  075%=      5-min Rain = 0
KCL1 170850Z 15007KT 18/13 A2999 RMK A01 T01780134  RH  075%=      5-min Rain = 0
KCL1 170851Z 14008KT 18/13 A2999 RMK A01 T01790134  RH  075%=      5-min Rain = 0
KCL1 170852Z 15007KT 18/13 A2999 RMK A01 T01790134  RH  075%=      5-min Rain = 0
KCL1 170853Z 15007KT 18/13 A2999 RMK A01 T01790134  RH  075%=      5-min Rain = 0
KCL1 170854Z 14008KT 18/13 A2999 RMK A01 T01790134  RH  075%=      5-min Rain = 0
KCL1 170855Z 14007KT 18/13 A2999 RMK A01 T01780134  RH  075%=      5-min Rain = 0
KCL1 170856Z 15007KT 18/13 A2999 RMK A01 T01780134  RH  075%=      5-min Rain = 0
KCL1 170857Z 14008KT 18/13 A2999 RMK A01 T01780133  RH  075%=      5-min Rain = 0
KCL1 170858Z 15007KT 18/13 A2999 RMK A01 T01780133  RH  075%=      5-min Rain = 0
KCL1 170859Z 15007KT 18/13 A2999 RMK A01 T01780134  RH  075%=      5-min Rain = 0
KCL1 170900Z 14008KT 18/13 A2999 RMK A01 T01780133  RH  075%=      5-min Rain = 0
KCL1 170901Z 15008KT 18/13 A2999 RMK A01 T01780133  RH  075%=      5-min Rain = 0
KCL1 170902Z 14009KT 18/13 A2999 RMK A01 T01770133  RH  075%=      5-min Rain = 0
KCL1 170903Z 14010KT 18/13 A2999 RMK A01 T01780133  RH  075%=      5-min Rain = 0
KCL1 170904Z 15007KT 18/13 A2999 RMK A01 T01780133  RH  075%=      5-min Rain = 0
KCL1 170905Z 15008KT 18/13 A2999 RMK A01 T01780133  RH  075%=      5-min Rain = 0
KCL1 170906Z 14011KT 18/13 A2999 RMK A01 T01780133  RH  075%=      5-min Rain = 0
KCL1 170907Z 15008KT 18/13 A2999 RMK A01 T01780133  RH  075%=      5-min Rain = 0
KCL1 170908Z 15008KT 18/13 A2999 RMK A01 T01780133  RH  075%=      5-min Rain = 0
KCL1 170909Z 15008KT 18/13 A2999 RMK A01 T01780133  RH  075%=      5-min Rain = 0
KCL1 170910Z 15008KT 18/13 A2999 RMK A01 T01780133  RH  075%=      5-min Rain = 0
KCL1 170911Z 15010KT 18/13 A2998 RMK A01 T01780133  RH  075%=      5-min Rain = 0
KCL1 170912Z 15011KT 18/13 A2998 RMK A01 T01780132  RH  075%=      5-min Rain = 0
KCL1 170913Z 15008KT 18/13 A2998 RMK A01 T01780133  RH  075%=      5-min Rain = 0
KCL1 170914Z 15009KT 18/13 A2998 RMK A01 T01780133  RH  075%=      5-min Rain = 0
KCL1 170915Z 14009KT 18/13 A2998 RMK A01 T01780133  RH  075%=      5-min Rain = 0
KCL1 170916Z 14009KT 18/13 A2998 RMK A01 T01780133  RH  075%=      5-min Rain = 0
KCL1 170917Z 14009KT 18/13 A2998 RMK A01 T01770133  RH  075%=      5-min Rain = 0
KCL1 170918Z 14007KT 18/13 A2998 RMK A01 T01770133  RH  075%=      5-min Rain = 0
KCL1 170919Z 14008KT 18/13 A2998 RMK A01 T01770133  RH  075%=      5-min Rain = 0
KCL1 170920Z 15008KT 18/13 A2998 RMK A01 T01760133  RH  076%=      5-min Rain = 0
KCL1 170921Z 15008KT 18/13 A2998 RMK A01 T01750132  RH  076%=      5-min Rain = 0
KCL1 170922Z 15008KT 18/13 A2998 RMK A01 T01750132  RH  076%=      5-min Rain = 0
KCL1 170923Z 15007KT 17/13 A2998 RMK A01 T01740132  RH  076%=      5-min Rain = 0
KCL1 170924Z 15008KT 17/13 A2998 RMK A01 T01740132  RH  076%=      5-min Rain = 0
KCL1 170925Z 15008KT 17/13 A2998 RMK A01 T01740132  RH  076%=      5-min Rain = 0
KCL1 170926Z 15009KT 17/13 A2998 RMK A01 T01740131  RH  076%=      5-min Rain = 0
KCL1 170927Z 16009KT 17/13 A2998 RMK A01 T01740131  RH  076%=      5-min Rain = 0
KCL1 170928Z 15008KT 18/13 A2998 RMK A01 T01750131  RH  075%=      5-min Rain = 0
KCL1 170929Z 15009KT 18/13 A2998 RMK A01 T01760131  RH  075%=      5-min Rain = 0
KCL1 170930Z 15010KT 18/13 A2998 RMK A01 T01760131  RH  075%=      5-min Rain = 0
KCL1 170931Z 15008KT 18/13 A2998 RMK A01 T01770131  RH  075%=      5-min Rain = 0
KCL1 170932Z 15008KT 18/13 A2998 RMK A01 T01770131  RH  074%=      5-min Rain = 0
KCL1 170933Z 15010KT 18/13 A2998 RMK A01 T01770131  RH  074%=      5-min Rain = 0
KCL1 170934Z 15009KT 18/13 A2998 RMK A01 T01780131  RH  074%=      5-min Rain = 0
KCL1 170935Z 16009KT 18/13 A2998 RMK A01 T01780131  RH  074%=      5-min Rain = 0
KCL1 170936Z 16008KT 18/13 A2998 RMK A01 T01780131  RH  074%=      5-min Rain = 0
KCL1 170937Z 15009KT 18/13 A2998 RMK A01 T01780130  RH  074%=      5-min Rain = 0
KCL1 170938Z 15009KT 18/13 A2998 RMK A01 T01780131  RH  074%=      5-min Rain = 0
KCL1 170939Z 15010KT 18/13 A2998 RMK A01 T01780131  RH  074%=      5-min Rain = 0
KCL1 170940Z 15009KT 18/13 A2998 RMK A01 T01780131  RH  074%=      5-min Rain = 0
KCL1 170941Z 14011KT 18/13 A2998 RMK A01 T01790131  RH  074%=      5-min Rain = 0
KCL1 170942Z 14009KT 18/13 A2998 RMK A01 T01790131  RH  074%=      5-min Rain = 0
KCL1 170943Z 15010KT 18/13 A2998 RMK A01 T01790131  RH  073%=      5-min Rain = 0
KCL1 170944Z 15008KT 18/13 A2998 RMK A01 T01790131  RH  074%=      5-min Rain = 0
KCL1 170945Z 14009KT 18/13 A2998 RMK A01 T01790131  RH  074%=      5-min Rain = 0
KCL1 170946Z 15011KT 18/13 A2998 RMK A01 T01790131  RH  074%=      5-min Rain = 0
KCL1 170947Z 15010KT 18/13 A2998 RMK A01 T01790132  RH  074%=      5-min Rain = 0
KCL1 170948Z 15009KT 18/13 A2998 RMK A01 T01790132  RH  074%=      5-min Rain = 0
KCL1 170949Z 15010KT 18/13 A2998 RMK A01 T01790132  RH  074%=      5-min Rain = 0
KCL1 170950Z 14010KT 18/13 A2998 RMK A01 T01790132  RH  074%=      5-min Rain = 0
KCL1 170951Z 15010KT 18/13 A2998 RMK A01 T01780132  RH  074%=      5-min Rain = 0
KCL1 170952Z 14009KT 18/13 A2998 RMK A01 T01780132  RH  075%=      5-min Rain = 0
KCL1 170953Z 14009KT 18/13 A2998 RMK A01 T01780132  RH  075%=      5-min Rain = 0
KCL1 170954Z 14009KT 18/13 A2998 RMK A01 T01770133  RH  075%=      5-min Rain = 0
KCL1 170955Z 15009KT 18/13 A2998 RMK A01 T01760132  RH  075%=      5-min Rain = 0
KCL1 170956Z 14009KT 18/13 A2998 RMK A01 T01760133  RH  076%=      5-min Rain = 0
KCL1 170957Z 14008KT 18/13 A2998 RMK A01 T01760132  RH  076%=      5-min Rain = 0
KCL1 170958Z 14010KT 18/13 A2998 RMK A01 T01760133  RH  076%=      5-min Rain = 0
KCL1 170959Z 14010KT 18/13 A2998 RMK A01 T01760133  RH  076%=      5-min Rain = 0
KCL1 171000Z 14009KT 18/13 A2998 RMK A01 T01750133  RH  076%=      5-min Rain = 0
KCL1 171001Z 14008KT 18/13 A2998 RMK A01 T01750133  RH  076%=      5-min Rain = 0
KCL1 171002Z 14010KT 17/13 A2998 RMK A01 T01740133  RH  076%=      5-min Rain = 0
KCL1 171003Z 14009KT 17/13 A2998 RMK A01 T01740133  RH  077%=      5-min Rain = 0
KCL1 171004Z 14008KT 17/13 A2998 RMK A01 T01740133  RH  077%=      5-min Rain = 0
KCL1 171005Z 14009KT 17/13 A2998 RMK A01 T01740133  RH  077%=      5-min Rain = 0
KCL1 171006Z 14009KT 17/13 A2998 RMK A01 T01740133  RH  077%=      5-min Rain = 0
KCL1 171007Z 14010KT 17/13 A2998 RMK A01 T01740133  RH  077%=      5-min Rain = 0
KCL1 171008Z 14008KT 17/13 A2998 RMK A01 T01740133  RH  077%=      5-min Rain = 0
KCL1 171009Z 14011KT 18/13 A2998 RMK A01 T01750134  RH  077%=      5-min Rain = 0
KCL1 171010Z 14010KT 18/13 A2998 RMK A01 T01750134  RH  077%=      5-min Rain = 0
KCL1 171011Z 14009KT 18/13 A2998 RMK A01 T01750134  RH  077%=      5-min Rain = 0
KCL1 171012Z 14010KT 18/13 A2998 RMK A01 T01760134  RH  076%=      5-min Rain = 0
KCL1 171013Z 14009KT 18/13 A2998 RMK A01 T01750134  RH  077%=      5-min Rain = 0
KCL1 171014Z 15009KT 18/13 A2998 RMK A01 T01750134  RH  077%=      5-min Rain = 0
KCL1 171015Z 14009KT 18/13 A2998 RMK A01 T01750134  RH  077%=      5-min Rain = 0
KCL1 171016Z 15009KT 18/13 A2998 RMK A01 T01750134  RH  077%=      5-min Rain = 0
KCL1 171017Z 14009KT 18/13 A2998 RMK A01 T01760134  RH  077%=      5-min Rain = 0
KCL1 171018Z 14009KT 18/13 A2998 RMK A01 T01750134  RH  077%=      5-min Rain = 0
KCL1 171019Z 14008KT 18/14 A2998 RMK A01 T01750135  RH  077%=      5-min Rain = 0
KCL1 171020Z 14009KT 17/13 A2998 RMK A01 T01740134  RH  077%=      5-min Rain = 0
KCL1 171021Z 14008KT 17/13 A2998 RMK A01 T01740134  RH  077%=      5-min Rain = 0
KCL1 171022Z 14009KT 17/14 A2998 RMK A01 T01740135  RH  078%=      5-min Rain = 0
KCL1 171023Z 14009KT 17/13 A2998 RMK A01 T01730134  RH  078%=      5-min Rain = 0
KCL1 171024Z 15010KT 17/14 A2998 RMK A01 T01730135  RH  078%=      5-min Rain = 0
KCL1 171025Z 15009KT 17/14 A2998 RMK A01 T01740135  RH  078%=      5-min Rain = 0
KCL1 171026Z 15009KT 17/14 A2998 RMK A01 T01740135  RH  078%=      5-min Rain = 0
KCL1 171027Z 14011KT 17/14 A2998 RMK A01 T01740135  RH  078%=      5-min Rain = 0
KCL1 171028Z 14011KT 18/14 A2998 RMK A01 T01750136  RH  078%=      5-min Rain = 0
KCL1 171029Z 14010KT 18/14 A2998 RMK A01 T01760136  RH  077%=      5-min Rain = 0
KCL1 171030Z 14011KT 18/14 A2998 RMK A01 T01760136  RH  077%=      5-min Rain = 0
KCL1 171031Z 14010KT 18/14 A2998 RMK A01 T01760136  RH  077%=      5-min Rain = 0
KCL1 171032Z 14009KT 18/14 A2998 RMK A01 T01760136  RH  077%=      5-min Rain = 0
KCL1 171033Z 15008KT 18/14 A2998 RMK A01 T01760136  RH  077%=      5-min Rain = 0
KCL1 171034Z 15008KT 18/14 A2998 RMK A01 T01760136  RH  077%=      5-min Rain = 0
KCL1 171035Z 15010KT 18/14 A2998 RMK A01 T01750136  RH  078%=      5-min Rain = 0
KCL1 171036Z 15011KT 18/14 A2998 RMK A01 T01750137  RH  078%=      5-min Rain = 0
KCL1 171037Z 15010KT 18/14 A2998 RMK A01 T01760137  RH  078%=      5-min Rain = 0
KCL1 171038Z 15010KT 18/14 A2998 RMK A01 T01760137  RH  078%=      5-min Rain = 0
KCL1 171039Z 14009KT 18/14 A2998 RMK A01 T01760137  RH  078%=      5-min Rain = 0
KCL1 171040Z 15011KT 18/14 A2998 RMK A01 T01760137  RH  078%=      5-min Rain = 0
KCL1 171041Z 14010KT 18/14 A2998 RMK A01 T01770137  RH  078%=      5-min Rain = 0
KCL1 171042Z 14009KT 18/14 A2998 RMK A01 T01770137  RH  077%=      5-min Rain = 0
KCL1 171043Z 14010KT 18/14 A2998 RMK A01 T01770137  RH  078%=      5-min Rain = 0
KCL1 171044Z 15008KT 18/14 A2998 RMK A01 T01770137  RH  078%=      5-min Rain = 0
KCL1 171045Z 14008KT 18/14 A2998 RMK A01 T01760137  RH  078%=      5-min Rain = 0
KCL1 171046Z 14008KT 18/14 A2998 RMK A01 T01760137  RH  078%=      5-min Rain = 0
KCL1 171047Z 14009KT 18/14 A2998 RMK A01 T01750137  RH  078%=      5-min Rain = 0
KCL1 171048Z 14008KT 18/14 A2998 RMK A01 T01750137  RH  078%=      5-min Rain = 0
KCL1 171049Z 14008KT 18/14 A2998 RMK A01 T01750137  RH  078%=      5-min Rain = 0
KCL1 171050Z 14008KT 17/14 A2998 RMK A01 T01740137  RH  079%=      5-min Rain = 0
KCL1 171051Z 14009KT 17/14 A2998 RMK A01 T01740137  RH  079%=      5-min Rain = 0
KCL1 171052Z 14007KT 17/14 A2998 RMK A01 T01740137  RH  079%=      5-min Rain = 0
KCL1 171053Z 14009KT 17/14 A2998 RMK A01 T01730137  RH  079%=      5-min Rain = 0
KCL1 171054Z 14008KT 17/14 A2998 RMK A01 T01720137  RH  079%=      5-min Rain = 0
KCL1 171055Z 14009KT 17/14 A2998 RMK A01 T01720137  RH  080%=      5-min Rain = 0
KCL1 171056Z 14008KT 17/14 A2998 RMK A01 T01720137  RH  080%=      5-min Rain = 0
KCL1 171057Z 14007KT 17/14 A2998 RMK A01 T01720137  RH  080%=      5-min Rain = 0
KCL1 171058Z 13008KT 17/14 A2998 RMK A01 T01720137  RH  080%=      5-min Rain = 0
KCL1 171059Z 13008KT 17/14 A2998 RMK A01 T01720137  RH  080%=      5-min Rain = 0
KCL1 171100Z 13008KT 17/14 A2998 RMK A01 T01710137  RH  080%=      5-min Rain = 0
KCL1 171101Z 14007KT 17/14 A2998 RMK A01 T01710137  RH  080%=      5-min Rain = 0
KCL1 171102Z 14007KT 17/14 A2998 RMK A01 T01700137  RH  080%=      5-min Rain = 0
KCL1 171103Z 13009KT 17/14 A2998 RMK A01 T01710137  RH  081%=      5-min Rain = 0
KCL1 171104Z 13009KT 17/14 A2998 RMK A01 T01700137  RH  081%=      5-min Rain = 0
KCL1 171105Z 14009KT 17/14 A2998 RMK A01 T01710137  RH  081%=      5-min Rain = 0
KCL1 171106Z 14008KT 17/14 A2998 RMK A01 T01710137  RH  081%=      5-min Rain = 0
KCL1 171107Z 14009KT 17/14 A2998 RMK A01 T01710137  RH  081%=      5-min Rain = 0
KCL1 171108Z 14009KT 17/14 A2998 RMK A01 T01710137  RH  081%=      5-min Rain = 0
KCL1 171109Z 13007KT 17/14 A2998 RMK A01 T01710137  RH  081%=      5-min Rain = 0
KCL1 171110Z 13008KT 17/14 A2998 RMK A01 T01720138  RH  081%=      5-min Rain = 0
KCL1 171111Z 14007KT 17/14 A2998 RMK A01 T01710138  RH  081%=      5-min Rain = 0
KCL1 171112Z 14008KT 17/14 A2998 RMK A01 T01710137  RH  081%=      5-min Rain = 0
KCL1 171113Z 14007KT 17/14 A2998 RMK A01 T01700137  RH  081%=      5-min Rain = 0
KCL1 171114Z 13007KT 17/14 A2998 RMK A01 T01700137  RH  081%=      5-min Rain = 0
KCL1 171115Z 14008KT 17/14 A2998 RMK A01 T01710138  RH  081%=      5-min Rain = 0
KCL1 171116Z 14007KT 17/14 A2998 RMK A01 T01700138  RH  081%=      5-min Rain = 0
KCL1 171117Z 14007KT 17/14 A2998 RMK A01 T01700138  RH  081%=      5-min Rain = 0
KCL1 171118Z 14007KT 17/14 A2998 RMK A01 T01700138  RH  081%=      5-min Rain = 0
KCL1 171119Z 14008KT 17/14 A2998 RMK A01 T01700137  RH  081%=      5-min Rain = 0
KCL1 171120Z 14008KT 17/14 A2998 RMK A01 T01700138  RH  081%=      5-min Rain = 0
KCL1 171121Z 14009KT 17/14 A2998 RMK A01 T01700138  RH  081%=      5-min Rain = 0
KCL1 171122Z 14008KT 17/14 A2998 RMK A01 T01700138  RH  081%=      5-min Rain = 0
KCL1 171123Z 14008KT 17/14 A2998 RMK A01 T01700138  RH  081%=      5-min Rain = 0
KCL1 171124Z 14007KT 17/14 A2998 RMK A01 T01700138  RH  081%=      5-min Rain = 0
KCL1 171125Z 14007KT 17/14 A2998 RMK A01 T01710138  RH  081%=      5-min Rain = 0
KCL1 171126Z 14008KT 17/14 A2998 RMK A01 T01700138  RH  081%=      5-min Rain = 0
KCL1 171127Z 14009KT 17/14 A2998 RMK A01 T01700138  RH  081%=      5-min Rain = 0
KCL1 171128Z 13008KT 17/14 A2998 RMK A01 T01700138  RH  081%=      5-min Rain = 0
KCL1 171129Z 14008KT 17/14 A2998 RMK A01 T01700138  RH  081%=      5-min Rain = 0
KCL1 171130Z 14008KT 17/14 A2998 RMK A01 T01700138  RH  081%=      5-min Rain = 0
KCL1 171131Z 14008KT 17/14 A2998 RMK A01 T01700138  RH  081%=      5-min Rain = 0
KCL1 171132Z 13008KT 17/14 A2998 RMK A01 T01700138  RH  082%=      5-min Rain = 0
KCL1 171133Z 14008KT 17/14 A2998 RMK A01 T01700138  RH  082%=      5-min Rain = 0
KCL1 171134Z 14009KT 17/14 A2998 RMK A01 T01700138  RH  082%=      5-min Rain = 0
KCL1 171135Z 14009KT 17/14 A2998 RMK A01 T01690138  RH  082%=      5-min Rain = 0
KCL1 171136Z 13009KT 17/14 A2998 RMK A01 T01700138  RH  081%=      5-min Rain = 0
KCL1 171137Z 14008KT 17/14 A2998 RMK A01 T01700138  RH  081%=      5-min Rain = 0
KCL1 171138Z 14007KT 17/14 A2998 RMK A01 T01700138  RH  081%=      5-min Rain = 0
KCL1 171139Z 14007KT 17/14 A2998 RMK A01 T01700138  RH  081%=      5-min Rain = 0
KCL1 171140Z 13009KT 17/14 A2998 RMK A01 T01690137  RH  082%=      5-min Rain = 0
KCL1 171141Z 13007KT 17/14 A2998 RMK A01 T01690138  RH  082%=      5-min Rain = 0
KCL1 171142Z 13009KT 17/14 A2998 RMK A01 T01690138  RH  082%=      5-min Rain = 0
KCL1 171143Z 13008KT 17/14 A2998 RMK A01 T01690138  RH  082%=      5-min Rain = 0
KCL1 171144Z 13008KT 17/14 A2998 RMK A01 T01690137  RH  082%=      5-min Rain = 0
KCL1 171145Z 14008KT 17/14 A2998 RMK A01 T01690137  RH  082%=      5-min Rain = 0
KCL1 171146Z 14008KT 17/14 A2998 RMK A01 T01690137  RH  082%=      5-min Rain = 0
KCL1 171147Z 14007KT 17/14 A2998 RMK A01 T01690137  RH  081%=      5-min Rain = 0
KCL1 171148Z 14008KT 17/14 A2998 RMK A01 T01690137  RH  081%=      5-min Rain = 0
KCL1 171149Z 14009KT 17/14 A2998 RMK A01 T01690137  RH  082%=      5-min Rain = 0
KCL1 171150Z 14008KT 17/14 A2998 RMK A01 T01700138  RH  081%=      5-min Rain = 0
KCL1 171151Z 14007KT 17/14 A2998 RMK A01 T01700137  RH  081%=      5-min Rain = 0
KCL1 171152Z 13007KT 17/14 A2998 RMK A01 T01700137  RH  081%=      5-min Rain = 0
KCL1 171153Z 14008KT 17/14 A2998 RMK A01 T01700137  RH  081%=      5-min Rain = 0
KCL1 171154Z 14009KT 17/14 A2998 RMK A01 T01700138  RH  081%=      5-min Rain = 0
KCL1 171155Z 14008KT 17/14 A2998 RMK A01 T01700137  RH  081%=      5-min Rain = 0
KCL1 171156Z 14009KT 17/14 A2998 RMK A01 T01690137  RH  081%=      5-min Rain = 0
KCL1 171157Z 14009KT 17/14 A2998 RMK A01 T01690137  RH  081%=      5-min Rain = 0
KCL1 171158Z 14008KT 17/14 A2998 RMK A01 T01700138  RH  081%=      5-min Rain = 0
KCL1 171159Z 14008KT 17/14 A2998 RMK A01 T01700137  RH  081%=      5-min Rain = 0
KCL1 171200Z 13008KT 17/14 A2998 RMK A01 T01700137  RH  081%=      5-min Rain = 0
KCL1 171201Z 14007KT 17/14 A2998 RMK A01 T01700137  RH  081%=      5-min Rain = 0
KCL1 171202Z 13008KT 17/14 A2998 RMK A01 T01710138  RH  081%=      5-min Rain = 0
KCL1 171203Z 14008KT 17/14 A2998 RMK A01 T01700137  RH  081%=      5-min Rain = 0
KCL1 171204Z 13008KT 17/14 A2998 RMK A01 T01710137  RH  081%=      5-min Rain = 0
KCL1 171205Z 14009KT 17/14 A2998 RMK A01 T01710137  RH  081%=      5-min Rain = 0
KCL1 171206Z 13008KT 17/14 A2998 RMK A01 T01720138  RH  080%=      5-min Rain = 0
KCL1 171207Z 14009KT 17/14 A2998 RMK A01 T01720138  RH  080%=      5-min Rain = 0
KCL1 171208Z 13008KT 17/14 A2998 RMK A01 T01720138  RH  080%=      5-min Rain = 0
KCL1 171209Z 13008KT 17/14 A2998 RMK A01 T01720138  RH  080%=      5-min Rain = 0
KCL1 171210Z 14007KT 17/14 A2998 RMK A01 T01720137  RH  080%=      5-min Rain = 0
KCL1 171211Z 14007KT 17/14 A2998 RMK A01 T01730138  RH  080%=      5-min Rain = 0
KCL1 171212Z 13008KT 17/14 A2998 RMK A01 T01730137  RH  080%=      5-min Rain = 0
KCL1 171213Z 14007KT 17/14 A2998 RMK A01 T01730138  RH  080%=      5-min Rain = 0
KCL1 171214Z 14007KT 17/14 A2998 RMK A01 T01740138  RH  079%=      5-min Rain = 0
KCL1 171215Z 14007KT 17/14 A2998 RMK A01 T01740138  RH  079%=      5-min Rain = 0
KCL1 171216Z 13007KT 17/14 A2999 RMK A01 T01740138  RH  079%=      5-min Rain = 0
KCL1 171217Z 14006KT 17/14 A2999 RMK A01 T01740138  RH  079%=      5-min Rain = 0
KCL1 171218Z 14007KT 18/14 A2999 RMK A01 T01750138  RH  079%=      5-min Rain = 0
KCL1 171219Z 14008KT 18/14 A2999 RMK A01 T01750138  RH  079%=      5-min Rain = 0
KCL1 171220Z 13008KT 18/14 A2999 RMK A01 T01750138  RH  079%=      5-min Rain = 0
KCL1 171221Z 13007KT 18/14 A2999 RMK A01 T01760138  RH  078%=      5-min Rain = 0
KCL1 171222Z 14008KT 18/14 A2999 RMK A01 T01760138  RH  078%=      5-min Rain = 0
KCL1 171223Z 13008KT 18/14 A2999 RMK A01 T01770138  RH  078%=      5-min Rain = 0
KCL1 171224Z 14008KT 18/14 A2999 RMK A01 T01770138  RH  078%=      5-min Rain = 0
KCL1 171225Z 14006KT 18/14 A2999 RMK A01 T01770138  RH  078%=      5-min Rain = 0
KCL1 171226Z 13006KT 18/14 A2999 RMK A01 T01770138  RH  078%=      5-min Rain = 0
KCL1 171227Z 13008KT 18/14 A2999 RMK A01 T01780138  RH  077%=      5-min Rain = 0
KCL1 171228Z 14009KT 18/14 A2999 RMK A01 T01780138  RH  077%=      5-min Rain = 0
KCL1 171229Z 14009KT 18/14 A2999 RMK A01 T01790138  RH  077%=      5-min Rain = 0
KCL1 171230Z 14009KT 18/14 A2999 RMK A01 T01790138  RH  077%=      5-min Rain = 0
KCL1 171231Z 14007KT 18/14 A2999 RMK A01 T01800138  RH  077%=      5-min Rain = 0
KCL1 171232Z 14008KT 18/14 A2999 RMK A01 T01800138  RH  076%=      5-min Rain = 0
KCL1 171233Z 14008KT 18/14 A2999 RMK A01 T01810138  RH  076%=      5-min Rain = 0
KCL1 171234Z 14009KT 18/14 A2999 RMK A01 T01810138  RH  076%=      5-min Rain = 0
KCL1 171235Z 14011KT 18/14 A2999 RMK A01 T01820138  RH  075%=      5-min Rain = 0
KCL1 171236Z 14008KT 18/14 A2999 RMK A01 T01820138  RH  075%=      5-min Rain = 0
KCL1 171237Z 14008KT 18/14 A2999 RMK A01 T01830138  RH  075%=      5-min Rain = 0
KCL1 171238Z 13009KT 18/14 A2999 RMK A01 T01830138  RH  075%=      5-min Rain = 0
KCL1 171239Z 14008KT 18/14 A2999 RMK A01 T01840138  RH  075%=      5-min Rain = 0
KCL1 171240Z 14009KT 18/14 A2999 RMK A01 T01840138  RH  074%=      5-min Rain = 0
KCL1 171241Z 14009KT 18/14 A2999 RMK A01 T01840138  RH  074%=      5-min Rain = 0
KCL1 171242Z 14009KT 19/14 A2999 RMK A01 T01850138  RH  074%=      5-min Rain = 0
KCL1 171243Z 14008KT 19/14 A2999 RMK A01 T01850138  RH  074%=      5-min Rain = 0
KCL1 171244Z 14010KT 19/14 A2999 RMK A01 T01850138  RH  074%=      5-min Rain = 0
KCL1 171245Z 14010KT 19/14 A2999 RMK A01 T01860138  RH  073%=      5-min Rain = 0
KCL1 171246Z 14011KT 19/14 A2999 RMK A01 T01860137  RH  073%=      5-min Rain = 0
KCL1 171247Z 14008KT 19/14 A2999 RMK A01 T01860137  RH  073%=      5-min Rain = 0
KCL1 171248Z 14009KT 19/14 A2999 RMK A01 T01860137  RH  073%=      5-min Rain = 0
KCL1 171249Z 14009KT 19/14 A2999 RMK A01 T01870137  RH  073%=      5-min Rain = 0
KCL1 171250Z 15008KT 19/14 A2999 RMK A01 T01870137  RH  073%=      5-min Rain = 0
KCL1 171251Z 14008KT 19/14 A2999 RMK A01 T01870138  RH  073%=      5-min Rain = 0
KCL1 171252Z 14011KT 19/14 A2999 RMK A01 T01880137  RH  072%=      5-min Rain = 0
KCL1 171253Z 14010KT 19/14 A2999 RMK A01 T01880137  RH  072%=      5-min Rain = 0
KCL1 171254Z 15011KT 19/14 A2999 RMK A01 T01880137  RH  072%=      5-min Rain = 0
KCL1 171255Z 14009KT 19/14 A2999 RMK A01 T01890137  RH  072%=      5-min Rain = 0
KCL1 171256Z 14011KT 19/14 A2999 RMK A01 T01900138  RH  072%=      5-min Rain = 0
KCL1 171257Z 14012KT 19/14 A2999 RMK A01 T01900137  RH  071%=      5-min Rain = 0
KCL1 171258Z 14010KT 19/14 A2999 RMK A01 T01900137  RH  071%=      5-min Rain = 0
KCL1 171259Z 14009KT 19/14 A2999 RMK A01 T01900137  RH  071%=      5-min Rain = 0
KCL1 171300Z 14008KT 19/14 A2999 RMK A01 T01910137  RH  071%=      5-min Rain = 0
KCL1 171301Z 14008KT 19/14 A2999 RMK A01 T01910137  RH  071%=      5-min Rain = 0
KCL1 171302Z 14010KT 19/14 A2999 RMK A01 T01920138  RH  071%=      5-min Rain = 0
KCL1 171303Z 14009KT 19/14 A2999 RMK A01 T01920138  RH  071%=      5-min Rain = 0
KCL1 171304Z 14009KT 19/14 A2999 RMK A01 T01930138  RH  070%=      5-min Rain = 0
KCL1 171305Z 14010KT 19/14 A2999 RMK A01 T01930138  RH  070%=      5-min Rain = 0
KCL1 171306Z 14010KT 19/14 A2999 RMK A01 T01930137  RH  070%=      5-min Rain = 0
KCL1 171307Z 14011KT 19/14 A2999 RMK A01 T01940137  RH  070%=      5-min Rain = 0
KCL1 171308Z 14009KT 19/14 A2999 RMK A01 T01940137  RH  070%=      5-min Rain = 0
KCL1 171309Z 13011KT 19/14 A2999 RMK A01 T01940137  RH  070%=      5-min Rain = 0
KCL1 171310Z 14008KT 20/14 A2999 RMK A01 T01950138  RH  069%=      5-min Rain = 0
KCL1 171311Z 13009KT 20/14 A2999 RMK A01 T01960138  RH  069%=      5-min Rain = 0
KCL1 171312Z 14010KT 20/14 A2999 RMK A01 T01970138  RH  069%=      5-min Rain = 0
KCL1 171313Z 15009G14KT 20/14 A2999 RMK A01 T01970139  RH  069%=      5-min Rain = 0
KCL1 171314Z 14010KT 20/14 A2999 RMK A01 T01970138  RH  068%=      5-min Rain = 0
KCL1 171315Z 14008KT 20/14 A2999 RMK A01 T01980139  RH  069%=      5-min Rain = 0
KCL1 171316Z 14009KT 20/14 A2999 RMK A01 T01970139  RH  069%=      5-min Rain = 0
KCL1 171317Z 15010KT 20/14 A2999 RMK A01 T01980138  RH  068%=      5-min Rain = 0
KCL1 171318Z 14009KT 20/14 A2999 RMK A01 T01980139  RH  069%=      5-min Rain = 0
KCL1 171319Z 14008KT 20/14 A2999 RMK A01 T01980139  RH  068%=      5-min Rain = 0
KCL1 171320Z 14007KT 20/14 A2999 RMK A01 T01990139  RH  068%=      5-min Rain = 0
KCL1 171321Z 15007KT 20/14 A2999 RMK A01 T01990139  RH  068%=      5-min Rain = 0
KCL1 171322Z 13008KT 20/14 A2999 RMK A01 T02000139  RH  068%=      5-min Rain = 0
KCL1 171323Z 14009KT 20/14 A2999 RMK A01 T02010139  RH  068%=      5-min Rain = 0
KCL1 171324Z 14011KT 20/14 A2999 RMK A01 T02010140  RH  067%=      5-min Rain = 0
KCL1 171325Z 13011KT 20/14 A2999 RMK A01 T02020139  RH  067%=      5-min Rain = 0
KCL1 171326Z 14012KT 20/14 A2999 RMK A01 T02020139  RH  067%=      5-min Rain = 0
KCL1 171327Z 14010KT 20/14 A2999 RMK A01 T02020140  RH  067%=      5-min Rain = 0
KCL1 171328Z 14008KT 20/14 A2999 RMK A01 T02020139  RH  067%=      5-min Rain = 0
KCL1 171329Z 14009KT 20/14 A2999 RMK A01 T02020139  RH  067%=      5-min Rain = 0
KCL1 171330Z 14011KT 20/14 A2999 RMK A01 T02030140  RH  067%=      5-min Rain = 0
KCL1 171331Z 15010KT 20/14 A2999 RMK A01 T02030139  RH  067%=      5-min Rain = 0
KCL1 171332Z 15010KT 20/14 A2999 RMK A01 T02040139  RH  067%=      5-min Rain = 0
KCL1 171333Z 13010KT 20/14 A2999 RMK A01 T02040140  RH  067%=      5-min Rain = 0
KCL1 171334Z 13008KT 20/14 A2999 RMK A01 T02040140  RH  067%=      5-min Rain = 0
KCL1 171335Z 14008KT 21/14 A2999 RMK A01 T02060141  RH  066%=      5-min Rain = 0
KCL1 171336Z 14009KT 21/14 A2999 RMK A01 T02070141  RH  066%=      5-min Rain = 0
KCL1 171337Z 13012KT 21/14 A2999 RMK A01 T02070140  RH  065%=      5-min Rain = 0
KCL1 171338Z 14012KT 21/14 A2999 RMK A01 T02080140  RH  065%=      5-min Rain = 0
KCL1 171339Z 14011KT 21/14 A2999 RMK A01 T02070140  RH  065%=      5-min Rain = 0
KCL1 171340Z 14014KT 21/14 A2999 RMK A01 T02070140  RH  065%=      5-min Rain = 0
KCL1 171341Z 14011KT 21/14 A2999 RMK A01 T02070140  RH  065%=      5-min Rain = 0
KCL1 171342Z 14011KT 21/14 A2999 RMK A01 T02060140  RH  066%=      5-min Rain = 0
KCL1 171343Z 14010KT 21/14 A2999 RMK A01 T02070140  RH  066%=      5-min Rain = 0
KCL1 171344Z 14010KT 21/14 A2999 RMK A01 T02070140  RH  065%=      5-min Rain = 0
KCL1 171345Z 13010KT 21/14 A2999 RMK A01 T02080141  RH  065%=      5-min Rain = 0
KCL1 171346Z 13010KT 21/14 A2999 RMK A01 T02090141  RH  065%=      5-min Rain = 0
KCL1 171347Z 14010KT 21/14 A2999 RMK A01 T02100141  RH  065%=      5-min Rain = 0
KCL1 171348Z 14011KT 21/14 A2999 RMK A01 T02110141  RH  064%=      5-min Rain = 0
KCL1 171349Z 14010KT 21/14 A2999 RMK A01 T02110141  RH  064%=      5-min Rain = 0
KCL1 171350Z 15007KT 21/14 A2999 RMK A01 T02110140  RH  064%=      5-min Rain = 0
KCL1 171351Z 14009KT 21/14 A2999 RMK A01 T02110141  RH  064%=      5-min Rain = 0
KCL1 171352Z 15010KT 21/14 A2999 RMK A01 T02120140  RH  063%=      5-min Rain = 0
KCL1 171353Z 15010KT 21/14 A2999 RMK A01 T02130140  RH  063%=      5-min Rain = 0
KCL1 171354Z 15007KT 21/14 A2999 RMK A01 T02120141  RH  064%=      5-min Rain = 0
KCL1 171355Z 15006KT 21/14 A2999 RMK A01 T02120141  RH  064%=      5-min Rain = 0
KCL1 171356Z 16007KT 21/14 A2999 RMK A01 T02130141  RH  063%=      5-min Rain = 0
KCL1 171357Z 14008KT 21/14 A2999 RMK A01 T02140141  RH  063%=      5-min Rain = 0
KCL1 171358Z 14011KT 21/14 A2999 RMK A01 T02140141  RH  063%=      5-min Rain = 0
KCL1 171359Z 14010KT 21/14 A2999 RMK A01 T02140140  RH  062%=      5-min Rain = 0
KCL1 171400Z 15009KT 22/14 A2999 RMK A01 T02150140  RH  062%=      5-min Rain = 0
KCL1 171401Z 14009KT 21/14 A2999 RMK A01 T02140140  RH  063%=      5-min Rain = 0
KCL1 171402Z 14008KT 22/14 A2999 RMK A01 T02150140  RH  062%=      5-min Rain = 0
KCL1 171403Z 16008KT 22/14 A2999 RMK A01 T02160140  RH  062%=      5-min Rain = 0
KCL1 171404Z 14010KT 22/14 A2999 RMK A01 T02160140  RH  062%=      5-min Rain = 0
KCL1 171405Z 14008KT 22/14 A2999 RMK A01 T02160140  RH  062%=      5-min Rain = 0
KCL1 171406Z 15010KT 22/14 A2999 RMK A01 T02170141  RH  062%=      5-min Rain = 0
KCL1 171407Z 15010KT 22/14 A2999 RMK A01 T02170141  RH  062%=      5-min Rain = 0
KCL1 171408Z 15007KT 22/14 A2999 RMK A01 T02180141  RH  062%=      5-min Rain = 0
KCL1 171409Z 14006KT 22/14 A2999 RMK A01 T02180141  RH  062%=      5-min Rain = 0
KCL1 171410Z 14010KT 22/14 A2999 RMK A01 T02200141  RH  061%=      5-min Rain = 0
KCL1 171411Z 15009KT 22/14 A2999 RMK A01 T02210140  RH  060%=      5-min Rain = 0
KCL1 171412Z 15009KT 22/14 A2999 RMK A01 T02210141  RH  060%=      5-min Rain = 0
KCL1 171413Z 15009KT 22/14 A2999 RMK A01 T02210142  RH  061%=      5-min Rain = 0
KCL1 171414Z 16010KT 22/14 A2999 RMK A01 T02230141  RH  060%=      5-min Rain = 0
KCL1 171415Z 16008KT 22/14 A2999 RMK A01 T02220140  RH  060%=      5-min Rain = 0
KCL1 171416Z 15010KT 22/14 A2999 RMK A01 T02210141  RH  060%=      5-min Rain = 0
KCL1 171417Z 16010KT 22/14 A2999 RMK A01 T02220141  RH  060%=      5-min Rain = 0
KCL1 171418Z 15010KT 22/14 A2999 RMK A01 T02210140  RH  060%=      5-min Rain = 0
KCL1 171419Z 14009KT 22/14 A2999 RMK A01 T02210140  RH  060%=      5-min Rain = 0
KCL1 171420Z 16008KT 22/14 A2999 RMK A01 T02210140  RH  060%=      5-min Rain = 0
KCL1 171421Z 15010KT 22/14 A2999 RMK A01 T02230140  RH  060%=      5-min Rain = 0
KCL1 171422Z 15011KT 22/14 A2999 RMK A01 T02230140  RH  059%=      5-min Rain = 0
KCL1 171423Z 16011KT 22/14 A2999 RMK A01 T02230140  RH  059%=      5-min Rain = 0
KCL1 171424Z 17011KT 22/14 A2999 RMK A01 T02230139  RH  059%=      5-min Rain = 0
KCL1 171425Z 16009KT 22/14 A2999 RMK A01 T02230140  RH  059%=      5-min Rain = 0
KCL1 171426Z 16008KT 22/14 A2999 RMK A01 T02240140  RH  059%=      5-min Rain = 0
KCL1 171427Z 16008KT 23/14 A2998 RMK A01 T02250140  RH  059%=      5-min Rain = 0
KCL1 171428Z 14013KT 23/14 A2999 RMK A01 T02260141  RH  059%=      5-min Rain = 0
KCL1 171429Z 14009KT 23/14 A2999 RMK A01 T02260139  RH  058%=      5-min Rain = 0
KCL1 171430Z 16008KT 23/14 A2999 RMK A01 T02260140  RH  058%=      5-min Rain = 0
KCL1 171431Z 15011KT 23/14 A2999 RMK A01 T02270141  RH  058%=      5-min Rain = 0
KCL1 171432Z 15012KT 23/14 A2999 RMK A01 T02280140  RH  058%=      5-min Rain = 0
KCL1 171433Z 15008KT 23/14 A2999 RMK A01 T02260140  RH  058%=      5-min Rain = 0
KCL1 171434Z 15011KT 23/14 A2999 RMK A01 T02260141  RH  058%=      5-min Rain = 0
KCL1 171435Z 14012KT 23/14 A2998 RMK A01 T02270141  RH  058%=      5-min Rain = 0
KCL1 171436Z 15010KT 23/14 A2998 RMK A01 T02270141  RH  058%=      5-min Rain = 0
KCL1 171437Z 15008KT 23/14 A2998 RMK A01 T02280140  RH  058%=      5-min Rain = 0
KCL1 171438Z 15008G13KT 23/14 A2998 RMK A01 T02290141  RH  058%=      5-min Rain = 0
KCL1 171439Z 15010KT 23/14 A2999 RMK A01 T02310141  RH  057%=      5-min Rain = 0
KCL1 171440Z 15009KT 23/14 A2998 RMK A01 T02310142  RH  057%=      5-min Rain = 0
KCL1 171441Z 13009KT 23/14 A2998 RMK A01 T02320142  RH  057%=      5-min Rain = 0
KCL1 171442Z 15012KT 23/14 A2998 RMK A01 T02330142  RH  056%=      5-min Rain = 0
KCL1 171443Z 14012KT 23/14 A2998 RMK A01 T02330141  RH  056%=      5-min Rain = 0
KCL1 171444Z 14011KT 23/14 A2999 RMK A01 T02330141  RH  056%=      5-min Rain = 0
KCL1 171445Z 16009KT 23/14 A2999 RMK A01 T02320142  RH  057%=      5-min Rain = 0
KCL1 171446Z 15007KT 23/14 A2999 RMK A01 T02310142  RH  057%=      5-min Rain = 0
KCL1 171447Z 15008KT 23/14 A2999 RMK A01 T02310143  RH  057%=      5-min Rain = 0
KCL1 171448Z 16009KT 23/14 A2999 RMK A01 T02330142  RH  057%=      5-min Rain = 0
KCL1 171449Z 15010KT 23/14 A2999 RMK A01 T02340142  RH  056%=      5-min Rain = 0
KCL1 171450Z 15011KT 23/14 A2999 RMK A01 T02340142  RH  056%=      5-min Rain = 0
KCL1 171451Z 14011KT 23/14 A2999 RMK A01 T02340142  RH  056%=      5-min Rain = 0
KCL1 171452Z 15011KT 23/14 A2999 RMK A01 T02330142  RH  056%=      5-min Rain = 0
KCL1 171453Z 16010KT 23/14 A2999 RMK A01 T02330142  RH  056%=      5-min Rain = 0
KCL1 171454Z 15011KT 23/14 A2999 RMK A01 T02330142  RH  056%=      5-min Rain = 0
KCL1 171455Z 15012KT 24/14 A2999 RMK A01 T02350142  RH  056%=      5-min Rain = 0
KCL1 171456Z 14012KT 24/14 A2999 RMK A01 T02350142  RH  056%=      5-min Rain = 0
KCL1 171457Z 14011KT 24/14 A2999 RMK A01 T02360143  RH  056%=      5-min Rain = 0
KCL1 171458Z 15010KT 24/14 A2999 RMK A01 T02360142  RH  056%=      5-min Rain = 0
KCL1 171459Z 14009G14KT 24/14 A2999 RMK A01 T02370144  RH  056%=      5-min Rain = 0
KCL1 171500Z 15011G16KT 24/14 A2999 RMK A01 T02390142  RH  055%=      5-min Rain = 0
KCL1 171501Z 14008KT 24/14 A2999 RMK A01 T02390144  RH  055%=      5-min Rain = 0
KCL1 171502Z 16009KT 24/14 A2999 RMK A01 T02400143  RH  054%=      5-min Rain = 0
KCL1 171503Z 15010KT 24/14 A2999 RMK A01 T02390144  RH  055%=      5-min Rain = 0
KCL1 171504Z 15010KT 24/14 A2999 RMK A01 T02400144  RH  055%=      5-min Rain = 0
KCL1 171505Z 15008KT 24/14 A2998 RMK A01 T02410144  RH  054%=      5-min Rain = 0
KCL1 171506Z 17009KT 24/14 A2998 RMK A01 T02420144  RH  054%=      5-min Rain = 0
KCL1 171507Z 15011KT 24/14 A2998 RMK A01 T02420144  RH  054%=      5-min Rain = 0
KCL1 171508Z 16010KT 24/14 A2998 RMK A01 T02420144  RH  054%=      5-min Rain = 0
KCL1 171509Z 15013G18KT 24/14 A2998 RMK A01 T02430144  RH  054%=      5-min Rain = 0
KCL1 171510Z 16010KT 24/14 A2998 RMK A01 T02430143  RH  054%=      5-min Rain = 0
KCL1 171511Z 16009KT 24/14 A2998 RMK A01 T02430144  RH  054%=      5-min Rain = 0
KCL1 171512Z 16010KT 24/14 A2998 RMK A01 T02430144  RH  054%=      5-min Rain = 0
KCL1 171513Z 16010KT 24/14 A2998 RMK A01 T02440143  RH  053%=      5-min Rain = 0
KCL1 171514Z 16009KT 24/14 A2998 RMK A01 T02430144  RH  054%=      5-min Rain = 0
KCL1 171515Z 16009KT 24/14 A2998 RMK A01 T02440143  RH  053%=      5-min Rain = 0
KCL1 171516Z 15013KT 24/14 A2998 RMK A01 T02440144  RH  054%=      5-min Rain = 0
KCL1 171517Z 16015KT 24/14 A2998 RMK A01 T02440143  RH  053%=      5-min Rain = 0
KCL1 171518Z 16012KT 24/14 A2998 RMK A01 T02430143  RH  054%=      5-min Rain = 0
KCL1 171519Z 16011KT 24/14 A2998 RMK A01 T02410143  RH  054%=      5-min Rain = 0
KCL1 171520Z 15010KT 24/14 A2998 RMK A01 T02410143  RH  054%=      5-min Rain = 0
KCL1 171521Z 14012KT 24/15 A2998 RMK A01 T02420145  RH  054%=      5-min Rain = 0
KCL1 171522Z 13012KT 24/15 A2998 RMK A01 T02440145  RH  054%=      5-min Rain = 0
KCL1 171523Z 14011KT 25/14 A2998 RMK A01 T02450144  RH  054%=      5-min Rain = 0
KCL1 171524Z 13013KT 24/14 A2998 RMK A01 T02440144  RH  054%=      5-min Rain = 0
KCL1 171525Z 14011KT 25/15 A2998 RMK A01 T02450145  RH  054%=      5-min Rain = 0
KCL1 171526Z 14013KT 25/15 A2998 RMK A01 T02480145  RH  053%=      5-min Rain = 0
KCL1 171527Z 14013KT 25/14 A2998 RMK A01 T02470144  RH  053%=      5-min Rain = 0
KCL1 171528Z 13014KT 25/15 A2998 RMK A01 T02450145  RH  053%=      5-min Rain = 0
KCL1 171529Z 13011KT 25/15 A2998 RMK A01 T02450145  RH  053%=      5-min Rain = 0
KCL1 171530Z 15011KT 25/15 A2998 RMK A01 T02460145  RH  053%=      5-min Rain = 0
KCL1 171531Z 16013KT 25/15 A2998 RMK A01 T02460145  RH  053%=      5-min Rain = 0
KCL1 171532Z 16009KT 25/15 A2998 RMK A01 T02460145  RH  053%=      5-min Rain = 0
KCL1 171533Z 14011KT 25/15 A2998 RMK A01 T02460146  RH  054%=      5-min Rain = 0
KCL1 171534Z 15010G15KT 25/15 A2998 RMK A01 T02490146  RH  053%=      5-min Rain = 0
KCL1 171535Z 15016KT 25/15 A2998 RMK A01 T02500146  RH  052%=      5-min Rain = 0
KCL1 171536Z 15014KT 25/14 A2998 RMK A01 T02480144  RH  052%=      5-min Rain = 0
KCL1 171537Z 14012KT 25/15 A2998 RMK A01 T02460145  RH  053%=      5-min Rain = 0
KCL1 171538Z 14010G15KT 25/15 A2998 RMK A01 T02460145  RH  053%=      5-min Rain = 0
KCL1 171539Z 14013KT 25/15 A2998 RMK A01 T02470145  RH  053%=      5-min Rain = 0
KCL1 171540Z 13012KT 25/15 A2998 RMK A01 T02480145  RH  053%=      5-min Rain = 0
KCL1 171541Z 15010KT 25/15 A2998 RMK A01 T02490146  RH  053%=      5-min Rain = 0
KCL1 171542Z 13012KT 25/15 A2998 RMK A01 T02520147  RH  052%=      5-min Rain = 0
KCL1 171543Z 15011KT 25/15 A2998 RMK A01 T02530146  RH  052%=      5-min Rain = 0
KCL1 171544Z 15012KT 25/15 A2998 RMK A01 T02540148  RH  052%=      5-min Rain = 0
KCL1 171545Z 14011KT 26/15 A2998 RMK A01 T02550147  RH  051%=      5-min Rain = 0
KCL1 171546Z 14009KT 25/15 A2998 RMK A01 T02540147  RH  052%=      5-min Rain = 0
KCL1 171547Z 14012KT 25/15 A2998 RMK A01 T02540147  RH  051%=      5-min Rain = 0
KCL1 171548Z 13013KT 25/15 A2998 RMK A01 T02530146  RH  051%=      5-min Rain = 0
KCL1 171549Z 14013KT 25/15 A2998 RMK A01 T02510145  RH  052%=      5-min Rain = 0
KCL1 171550Z 17011KT 25/15 A2997 RMK A01 T02510146  RH  052%=      5-min Rain = 0
KCL1 171551Z 16012KT 25/15 A2998 RMK A01 T02530146  RH  052%=      5-min Rain = 0
KCL1 171552Z 14010KT 25/15 A2998 RMK A01 T02530146  RH  052%=      5-min Rain = 0
KCL1 171553Z 16010G16KT 25/15 A2997 RMK A01 T02540148  RH  052%=      5-min Rain = 0
KCL1 171554Z 17010KT 26/15 A2997 RMK A01 T02560146  RH  051%=      5-min Rain = 0
KCL1 171555Z 16010KT 26/15 A2997 RMK A01 T02560146  RH  051%=      5-min Rain = 0
KCL1 171556Z 14009KT 26/15 A2997 RMK A01 T02550147  RH  051%=      5-min Rain = 0
KCL1 171557Z 14011G16KT 25/15 A2997 RMK A01 T02540147  RH  051%=      5-min Rain = 0
KCL1 171558Z 14011KT 26/15 A2997 RMK A01 T02560146  RH  051%=      5-min Rain = 0
KCL1 171559Z 14012KT 26/15 A2997 RMK A01 T02560148  RH  051%=      5-min Rain = 0
KCL1 171600Z 16013KT 26/15 A2997 RMK A01 T02580146  RH  050%=      5-min Rain = 0
KCL1 171601Z 15011KT 26/15 A2997 RMK A01 T02560145  RH  050%=      5-min Rain = 0
KCL1 171602Z 16010KT 26/15 A2997 RMK A01 T02550146  RH  051%=      5-min Rain = 0
KCL1 171603Z 15013KT 26/15 A2997 RMK A01 T02550146  RH  051%=      5-min Rain = 0
KCL1 171604Z 17011KT 26/15 A2997 RMK A01 T02560146  RH  051%=      5-min Rain = 0
KCL1 171605Z 16012KT 26/15 A2997 RMK A01 T02560147  RH  051%=      5-min Rain = 0
KCL1 171606Z 16011KT 26/15 A2997 RMK A01 T02580147  RH  050%=      5-min Rain = 0
KCL1 171607Z 15011KT 26/15 A2997 RMK A01 T02590147  RH  050%=      5-min Rain = 0
KCL1 171608Z 16010KT 26/15 A2997 RMK A01 T02610148  RH  050%=      5-min Rain = 0
KCL1 171609Z 16014KT 26/15 A2997 RMK A01 T02610147  RH  049%=      5-min Rain = 0
KCL1 171610Z 17010KT 26/15 A2997 RMK A01 T02580145  RH  050%=      5-min Rain = 0
KCL1 171611Z 17012KT 26/15 A2997 RMK A01 T02580146  RH  050%=      5-min Rain = 0
KCL1 171612Z 15008KT 26/15 A2997 RMK A01 T02580145  RH  050%=      5-min Rain = 0
KCL1 171613Z 17012KT 26/15 A2997 RMK A01 T02590146  RH  050%=      5-min Rain = 0
KCL1 171614Z 14013KT 26/15 A2997 RMK A01 T02610147  RH  049%=      5-min Rain = 0
KCL1 171615Z 14011G16KT 26/15 A2997 RMK A01 T02640147  RH  049%=      5-min Rain = 0
KCL1 171616Z 13014G19KT 26/15 A2997 RMK A01 T02640147  RH  049%=      5-min Rain = 0
KCL1 171617Z 13013G18KT 26/15 A2997 RMK A01 T02640146  RH  048%=      5-min Rain = 0
KCL1 171618Z 16011KT 27/15 A2997 RMK A01 T02650147  RH  048%=      5-min Rain = 0
KCL1 171619Z 17010KT 27/15 A2997 RMK A01 T02650146  RH  048%=      5-min Rain = 0
KCL1 171620Z 14010KT 26/15 A2997 RMK A01 T02620146  RH  049%=      5-min Rain = 0
KCL1 171621Z 17011G18KT 26/15 A2997 RMK A01 T02630147  RH  049%=      5-min Rain = 0
KCL1 171622Z 16011G16KT 26/15 A2997 RMK A01 T02640145  RH  048%=      5-min Rain = 0
KCL1 171623Z 14012G17KT 26/15 A2997 RMK A01 T02610146  RH  049%=      5-min Rain = 0
KCL1 171624Z 17010KT 26/15 A2997 RMK A01 T02610146  RH  049%=      5-min Rain = 0
KCL1 171625Z 14010KT 26/15 A2997 RMK A01 T02630146  RH  049%=      5-min Rain = 0
KCL1 171626Z 12015KT 26/15 A2997 RMK A01 T02640146  RH  048%=      5-min Rain = 0
KCL1 171627Z 12015KT 27/15 A2997 RMK A01 T02650146  RH  048%=      5-min Rain = 0
KCL1 171628Z 14013KT 27/15 A2997 RMK A01 T02650146  RH  048%=      5-min Rain = 0
KCL1 171629Z 14014KT 27/15 A2997 RMK A01 T02660146  RH  048%=      5-min Rain = 0
KCL1 171630Z 15013G18KT 27/15 A2997 RMK A01 T02660146  RH  048%=      5-min Rain = 0
KCL1 171631Z 16010KT 26/15 A2997 RMK A01 T02620145  RH  048%=      5-min Rain = 0
KCL1 171632Z 14010KT 26/15 A2997 RMK A01 T02610146  RH  049%=      5-min Rain = 0
KCL1 171633Z 14012KT 26/15 A2997 RMK A01 T02620146  RH  049%=      5-min Rain = 0
KCL1 171634Z 14010KT 26/15 A2997 RMK A01 T02630147  RH  049%=      5-min Rain = 0
KCL1 171635Z 14009KT 27/15 A2997 RMK A01 T02670148  RH  048%=      5-min Rain = 0
KCL1 171636Z 16010KT 27/15 A2997 RMK A01 T02670148  RH  048%=      5-min Rain = 0
KCL1 171637Z 16009KT 27/15 A2997 RMK A01 T02680147  RH  047%=      5-min Rain = 0
KCL1 171638Z 15009KT 27/15 A2997 RMK A01 T02680146  RH  047%=      5-min Rain = 0
KCL1 171639Z 17010KT 27/15 A2997 RMK A01 T02680146  RH  047%=      5-min Rain = 0
KCL1 171640Z 15010KT 27/15 A2997 RMK A01 T02680146  RH  047%=      5-min Rain = 0
KCL1 171641Z 15009KT 27/15 A2997 RMK A01 T02680148  RH  048%=      5-min Rain = 0
KCL1 171642Z 16012KT 27/15 A2997 RMK A01 T02690147  RH  047%=      5-min Rain = 0
KCL1 171643Z 14009KT 27/15 A2997 RMK A01 T02690148  RH  048%=      5-min Rain = 0
KCL1 171644Z 17011KT 27/15 A2997 RMK A01 T02710148  RH  047%=      5-min Rain = 0
KCL1 171645Z 16010G15KT 27/15 A2997 RMK A01 T02710147  RH  047%=      5-min Rain = 0
KCL1 171646Z 18010KT 27/15 A2997 RMK A01 T02710147  RH  047%=      5-min Rain = 0
KCL1 171647Z 17008KT 27/15 A2997 RMK A01 T02700147  RH  047%=      5-min Rain = 0
KCL1 171648Z 15010KT 27/15 A2997 RMK A01 T02700148  RH  047%=      5-min Rain = 0
KCL1 171649Z 15011KT 28/15 A2997 RMK A01 T02750148  RH  046%=      5-min Rain = 0
KCL1 171650Z 14012KT 28/15 A2997 RMK A01 T02750147  RH  045%=      5-min Rain = 0
KCL1 171651Z 13011G17KT 27/15 A2997 RMK A01 T02730147  RH  046%=      5-min Rain = 0
KCL1 171652Z 12014KT 27/15 A2997 RMK A01 T02740148  RH  046%=      5-min Rain = 0
KCL1 171653Z 14012KT 28/15 A2997 RMK A01 T02750147  RH  046%=      5-min Rain = 0
KCL1 171654Z 11009KT 27/15 A2997 RMK A01 T02740148  RH  046%=      5-min Rain = 0
KCL1 171655Z 13012KT 27/15 A2997 RMK A01 T02740145  RH  045%=      5-min Rain = 0
KCL1 171656Z 12011KT 28/15 A2997 RMK A01 T02750147  RH  045%=      5-min Rain = 0
KCL1 171657Z 13011KT 28/15 A2997 RMK A01 T02760149  RH  046%=      5-min Rain = 0
KCL1 171658Z 13009KT 28/15 A2997 RMK A01 T02790149  RH  045%=      5-min Rain = 0
KCL1 171659Z 13013G18KT 28/15 A2997 RMK A01 T02810150  RH  045%=      5-min Rain = 0
KCL1 171700Z 14010KT 28/15 A2996 RMK A01 T02810147  RH  044%=      5-min Rain = 0
KCL1 171701Z 15012G17KT 28/15 A2996 RMK A01 T02790149  RH  045%=      5-min Rain = 0
KCL1 171702Z 15011KT 28/15 A2997 RMK A01 T02790145  RH  044%=      5-min Rain = 0
KCL1 171703Z 16010KT 28/15 A2996 RMK A01 T02770146  RH  045%=      5-min Rain = 0
KCL1 171704Z 14012KT 28/15 A2996 RMK A01 T02760146  RH  045%=      5-min Rain = 0
KCL1 171705Z 14011KT 28/15 A2996 RMK A01 T02770148  RH  045%=      5-min Rain = 0
KCL1 171706Z 17012KT 28/15 A2996 RMK A01 T02800146  RH  044%=      5-min Rain = 0
KCL1 171707Z 15010KT 28/15 A2996 RMK A01 T02810145  RH  043%=      5-min Rain = 0
KCL1 171708Z 17009KT 28/15 A2996 RMK A01 T02800146  RH  044%=      5-min Rain = 0
KCL1 171709Z 14012KT 28/15 A2996 RMK A01 T02810147  RH  044%=      5-min Rain = 0
KCL1 171710Z 13012KT 28/15 A2996 RMK A01 T02830147  RH  043%=      5-min Rain = 0
KCL1 171711Z 13014KT 28/15 A2996 RMK A01 T02830147  RH  043%=      5-min Rain = 0
KCL1 171712Z 14012G19KT 28/15 A2996 RMK A01 T02840147  RH  043%=      5-min Rain = 0
KCL1 171713Z 16009KT 28/15 A2996 RMK A01 T02840145  RH  043%=      5-min Rain = 0
KCL1 171714Z 14010KT 28/15 A2996 RMK A01 T02800146  RH  044%=      5-min Rain = 0
KCL1 171715Z 16010G15KT 28/15 A2996 RMK A01 T02800148  RH  044%=      5-min Rain = 0
KCL1 171716Z 15011KT 28/15 A2996 RMK A01 T02840146  RH  043%=      5-min Rain = 0
KCL1 171717Z 16009KT 29/15 A2996 RMK A01 T02850146  RH  043%=      5-min Rain = 0
KCL1 171718Z 17009KT 29/15 A2996 RMK A01 T02850145  RH  042%=      5-min Rain = 0
KCL1 171719Z 13011KT 29/15 A2996 RMK A01 T02850146  RH  043%=      5-min Rain = 0
KCL1 171720Z 12012KT 29/15 A2996 RMK A01 T02860147  RH  043%=      5-min Rain = 0
KCL1 171721Z 12014G19KT 29/15 A2996 RMK A01 T02860146  RH  042%=      5-min Rain = 0
KCL1 171722Z 14015KT 29/15 A2996 RMK A01 T02870145  RH  042%=      5-min Rain = 0
KCL1 171723Z 15012KT 29/14 A2996 RMK A01 T02880144  RH  041%=      5-min Rain = 0
KCL1 171724Z 15011KT 29/15 A2996 RMK A01 T02870146  RH  042%=      5-min Rain = 0
KCL1 171725Z 15011KT 29/15 A2996 RMK A01 T02880146  RH  042%=      5-min Rain = 0
KCL1 171726Z 15011KT 29/15 A2996 RMK A01 T02890147  RH  042%=      5-min Rain = 0
KCL1 171727Z 15010KT 29/15 A2996 RMK A01 T02890147  RH  042%=      5-min Rain = 0
KCL1 171728Z 16014KT 29/15 A2995 RMK A01 T02910147  RH  042%=      5-min Rain = 0
KCL1 171729Z 15013G18KT 29/15 A2995 RMK A01 T02920145  RH  041%=      5-min Rain = 0
KCL1 171730Z 15013KT 29/15 A2995 RMK A01 T02890145  RH  041%=      5-min Rain = 0
KCL1 171731Z 14013KT 29/15 A2995 RMK A01 T02890147  RH  042%=      5-min Rain = 0
KCL1 171732Z 13011KT 29/15 A2995 RMK A01 T02920147  RH  041%=      5-min Rain = 0
KCL1 171733Z 15012KT 29/15 A2995 RMK A01 T02940147  RH  041%=      5-min Rain = 0
KCL1 171734Z 14009KT 30/15 A2995 RMK A01 T02950145  RH  040%=      5-min Rain = 0
KCL1 171735Z 16008KT 29/15 A2995 RMK A01 T02930146  RH  041%=      5-min Rain = 0
KCL1 171736Z 15009KT 30/15 A2995 RMK A01 T02950145  RH  040%=      5-min Rain = 0
KCL1 171737Z 16010KT 30/15 A2995 RMK A01 T02970145  RH  040%=      5-min Rain = 0
KCL1 171738Z 16015KT 30/14 A2994 RMK A01 T02980143  RH  039%=      5-min Rain = 0
KCL1 171739Z 15015KT 30/14 A2995 RMK A01 T02970141  RH  038%=      5-min Rain = 0
KCL1 171740Z 14013KT 30/14 A2994 RMK A01 T02960142  RH  039%=      5-min Rain = 0
KCL1 171741Z 14014G19KT 30/14 A2994 RMK A01 T02970144  RH  039%=      5-min Rain = 0
KCL1 171742Z 13011KT 30/14 A2994 RMK A01 T02990143  RH  038%=      5-min Rain = 0
KCL1 171743Z 14011KT 30/15 A2994 RMK A01 T02990145  RH  039%=      5-min Rain = 0
KCL1 171744Z 13014G19KT 30/15 A2994 RMK A01 T03020149  RH  039%=      5-min Rain = 0
KCL1 171745Z 13012G17KT 30/15 A2994 RMK A01 T03030150  RH  039%=      5-min Rain = 0
KCL1 171746Z 17012KT 30/15 A2994 RMK A01 T03030146  RH  038%=      5-min Rain = 0
KCL1 171747Z 16012G17KT 30/14 A2994 RMK A01 T03030142  RH  037%=      5-min Rain = 0
KCL1 171748Z 16016KT 30/14 A2994 RMK A01 T03020139  RH  037%=      5-min Rain = 0
KCL1 171749Z 14014KT 30/14 A2994 RMK A01 T02990142  RH  038%=      5-min Rain = 0
KCL1 171750Z 15014KT 30/14 A2994 RMK A01 T02990143  RH  039%=      5-min Rain = 0
KCL1 171751Z 16013G19KT 30/14 A2994 RMK A01 T02990143  RH  039%=      5-min Rain = 0
KCL1 171752Z 16014KT 30/15 A2994 RMK A01 T02970145  RH  040%=      5-min Rain = 0
KCL1 171753Z 16013G20KT 30/15 A2994 RMK A01 T02970146  RH  040%=      5-min Rain = 0
KCL1 171754Z 15015G20KT 30/15 A2994 RMK A01 T02960145  RH  040%=      5-min Rain = 0
KCL1 171755Z 15016KT 30/15 A2994 RMK A01 T02990146  RH  039%=      5-min Rain = 0
KCL1 171756Z 17015KT 30/14 A2994 RMK A01 T03010144  RH  039%=      5-min Rain = 0
KCL1 171757Z 15017KT 30/15 A2994 RMK A01 T03020145  RH  039%=      5-min Rain = 0
KCL1 171758Z 15018KT 30/15 A2994 RMK A01 T03010146  RH  039%=      5-min Rain = 0
KCL1 171759Z 15017KT 30/15 A2994 RMK A01 T03000145  RH  039%=      5-min Rain = 0
KCL1 171800Z 17017KT 30/15 A2993 RMK A01 T02970146  RH  040%=      5-min Rain = 0
KCL1 171801Z 14012KT 30/15 A2993 RMK A01 T02960146  RH  040%=      5-min Rain = 0
KCL1 171802Z 14011G17KT 30/15 A2993 RMK A01 T02960148  RH  041%=      5-min Rain = 0
KCL1 171803Z 16017KT 30/15 A2993 RMK A01 T02970148  RH  040%=      5-min Rain = 0
KCL1 171804Z 16015G21KT 30/15 A2993 RMK A01 T02970149  RH  041%=      5-min Rain = 0
KCL1 171805Z 16016G22KT 30/15 A2993 RMK A01 T02970147  RH  040%=      5-min Rain = 0
KCL1 171806Z 16009KT 30/15 A2993 RMK A01 T02980146  RH  040%=      5-min Rain = 0
KCL1 171807Z 13013G19KT 30/15 A2993 RMK A01 T03020151  RH  040%=      5-min Rain = 0
KCL1 171808Z 14013G19KT 31/15 A2993 RMK A01 T03050153  RH  040%=      5-min Rain = 0
KCL1 171809Z 12015KT 31/15 A2993 RMK A01 T03060154  RH  040%=      5-min Rain = 0
KCL1 171810Z 12015KT 31/15 A2993 RMK A01 T03060153  RH  040%=      5-min Rain = 0
KCL1 171811Z 13012KT 31/15 A2993 RMK A01 T03050152  RH  040%=      5-min Rain = 0
KCL1 171812Z 15016G21KT 31/15 A2993 RMK A01 T03060152  RH  039%=      5-min Rain = 0
KCL1 171813Z 16018G24KT 31/15 A2993 RMK A01 T03060148  RH  038%=      5-min Rain = 0
KCL1 171814Z 16016KT 30/15 A2993 RMK A01 T03030146  RH  038%=      5-min Rain = 0
KCL1 171815Z 15011KT 30/15 A2993 RMK A01 T03000148  RH  040%=      5-min Rain = 0
KCL1 171816Z 14010KT 30/15 A2993 RMK A01 T03010150  RH  040%=      5-min Rain = 0
KCL1 171817Z 14013KT 30/15 A2993 RMK A01 T03040152  RH  040%=      5-min Rain = 0
KCL1 171818Z 15010G15KT 31/15 A2993 RMK A01 T03060153  RH  040%=      5-min Rain = 0
KCL1 171819Z 14016G21KT 31/15 A2993 RMK A01 T03090152  RH  039%=      5-min Rain = 0
KCL1 171820Z 12015G20KT 31/15 A2993 RMK A01 T03090152  RH  039%=      5-min Rain = 0
KCL1 171821Z 13014KT 31/15 A2993 RMK A01 T03070152  RH  039%=      5-min Rain = 0
KCL1 171822Z 13011KT 31/15 A2993 RMK A01 T03070152  RH  039%=      5-min Rain = 0
KCL1 171823Z 12016G24KT 31/15 A2993 RMK A01 T03060152  RH  039%=      5-min Rain = 0
KCL1 171824Z 12015G22KT 31/15 A2993 RMK A01 T03060149  RH  039%=      5-min Rain = 0
KCL1 171825Z 13017G22KT 31/15 A2992 RMK A01 T03050151  RH  039%=      5-min Rain = 0
KCL1 171826Z 14018G23KT 31/15 A2992 RMK A01 T03080150  RH  038%=      5-min Rain = 0
KCL1 171827Z 16015KT 31/15 A2993 RMK A01 T03070145  RH  037%=      5-min Rain = 0
KCL1 171828Z 14015KT 31/15 A2993 RMK A01 T03080145  RH  037%=      5-min Rain = 0
KCL1 171829Z 14014KT 31/15 A2993 RMK A01 T03080149  RH  038%=      5-min Rain = 0
KCL1 171830Z 16017G22KT 31/15 A2992 RMK A01 T03110149  RH  038%=      5-min Rain = 0
KCL1 171831Z 15011KT 31/15 A2993 RMK A01 T03100150  RH  038%=      5-min Rain = 0
KCL1 171832Z 13016KT 31/15 A2993 RMK A01 T03120150  RH  038%=      5-min Rain = 0
KCL1 171833Z 12016KT 31/15 A2993 RMK A01 T03100150  RH  038%=      5-min Rain = 0
KCL1 171834Z 12013KT 31/15 A2992 RMK A01 T03070149  RH  038%=      5-min Rain = 0
KCL1 171835Z 14010G15KT 31/15 A2992 RMK A01 T03050150  RH  039%=      5-min Rain = 0
KCL1 171836Z 15013KT 31/15 A2992 RMK A01 T03090151  RH  038%=      5-min Rain = 0
KCL1 171837Z 16015G20KT 31/15 A2992 RMK A01 T03110147  RH  037%=      5-min Rain = 0
KCL1 171838Z 14017KT 31/15 A2992 RMK A01 T03120149  RH  037%=      5-min Rain = 0
KCL1 171839Z 13013KT 31/15 A2992 RMK A01 T03100150  RH  038%=      5-min Rain = 0
KCL1 171840Z 12016KT 31/15 A2992 RMK A01 T03090151  RH  038%=      5-min Rain = 0
KCL1 171841Z 14013KT 31/15 A2992 RMK A01 T03090151  RH  038%=      5-min Rain = 0
KCL1 171842Z 14012KT 31/15 A2992 RMK A01 T03080150  RH  038%=      5-min Rain = 0
KCL1 171843Z 15011KT 31/15 A2992 RMK A01 T03050149  RH  039%=      5-min Rain = 0
KCL1 171844Z 14013KT 31/15 A2992 RMK A01 T03050150  RH  039%=      5-min Rain = 0
KCL1 171845Z 14010KT 31/15 A2992 RMK A01 T03070149  RH  038%=      5-min Rain = 0
KCL1 171846Z 15012KT 31/15 A2992 RMK A01 T03070149  RH  038%=      5-min Rain = 0
KCL1 171847Z 16018KT 31/15 A2992 RMK A01 T03100148  RH  037%=      5-min Rain = 0
KCL1 171848Z 15020G25KT 31/15 A2992 RMK A01 T03120146  RH  036%=      5-min Rain = 0
KCL1 171849Z 15014KT 31/15 A2992 RMK A01 T03090145  RH  037%=      5-min Rain = 0
KCL1 171850Z 14016KT 31/15 A2992 RMK A01 T03070146  RH  038%=      5-min Rain = 0
KCL1 171851Z 15015KT 31/15 A2992 RMK A01 T03070146  RH  037%=      5-min Rain = 0
KCL1 171852Z 14014G20KT 31/15 A2992 RMK A01 T03100146  RH  037%=      5-min Rain = 0
KCL1 171853Z 17013KT 31/14 A2992 RMK A01 T03110143  RH  036%=      5-min Rain = 0
KCL1 171854Z 15012G18KT 31/14 A2992 RMK A01 T03100142  RH  036%=      5-min Rain = 0
KCL1 171855Z 15015G22KT 31/14 A2992 RMK A01 T03110144  RH  036%=      5-min Rain = 0
KCL1 171856Z 14016KT 31/14 A2992 RMK A01 T03130143  RH  035%=      5-min Rain = 0
KCL1 171857Z 16017KT 31/14 A2992 RMK A01 T03140144  RH  036%=      5-min Rain = 0
KCL1 171858Z 14013KT 31/14 A2992 RMK A01 T03140144  RH  036%=      5-min Rain = 0
KCL1 171859Z 14010KT 31/15 A2992 RMK A01 T03120145  RH  036%=      5-min Rain = 0
KCL1 171900Z 15017G22KT 32/15 A2992 RMK A01 T03160146  RH  036%=      5-min Rain = 0
KCL1 171901Z 15014KT 32/15 A2992 RMK A01 T03170147  RH  036%=      5-min Rain = 0
KCL1 171902Z 13012KT 31/15 A2991 RMK A01 T03140146  RH  036%=      5-min Rain = 0
KCL1 171903Z 13015KT 31/15 A2991 RMK A01 T03120147  RH  037%=      5-min Rain = 0
KCL1 171904Z 13017KT 31/15 A2991 RMK A01 T03120145  RH  036%=      5-min Rain = 0
KCL1 171905Z 14016G22KT 31/15 A2992 RMK A01 T03130145  RH  036%=      5-min Rain = 0
KCL1 171906Z 13018G24KT 32/15 A2991 RMK A01 T03170145  RH  035%=      5-min Rain = 0
KCL1 171907Z 14015G24KT 32/14 A2991 RMK A01 T03170144  RH  035%=      5-min Rain = 0
KCL1 171908Z 15011KT 32/15 A2991 RMK A01 T03160145  RH  036%=      5-min Rain = 0
KCL1 171909Z 14013KT 32/15 A2992 RMK A01 T03180146  RH  035%=      5-min Rain = 0
KCL1 171910Z 14012G17KT 32/15 A2991 RMK A01 T03190145  RH  035%=      5-min Rain = 0
KCL1 171911Z 12012KT 32/15 A2991 RMK A01 T03210147  RH  035%=      5-min Rain = 0
KCL1 171912Z 13012KT 32/15 A2991 RMK A01 T03220148  RH  035%=      5-min Rain = 0
KCL1 171913Z 15011KT 32/15 A2991 RMK A01 T03220149  RH  035%=      5-min Rain = 0
KCL1 171914Z 15014G19KT 32/15 A2991 RMK A01 T03220146  RH  035%=      5-min Rain = 0
KCL1 171915Z 15013KT 32/15 A2991 RMK A01 T03190145  RH  035%=      5-min Rain = 0
KCL1 171916Z 14016KT 32/15 A2991 RMK A01 T03150145  RH  036%=      5-min Rain = 0
KCL1 171917Z 12015KT 32/15 A2991 RMK A01 T03150145  RH  036%=      5-min Rain = 0
KCL1 171918Z 15016KT 32/15 A2991 RMK A01 T03180146  RH  035%=      5-min Rain = 0
KCL1 171919Z 16019KT 32/14 A2991 RMK A01 T03210144  RH  034%=      5-min Rain = 0
KCL1 171920Z 15016KT 32/14 A2991 RMK A01 T03190143  RH  035%=      5-min Rain = 0
KCL1 171921Z 14017KT 32/14 A2991 RMK A01 T03170143  RH  035%=      5-min Rain = 0
KCL1 171922Z 14015KT 32/14 A2991 RMK A01 T03150142  RH  035%=      5-min Rain = 0
KCL1 171923Z 15013KT 32/14 A2991 RMK A01 T03150141  RH  035%=      5-min Rain = 0
KCL1 171924Z 14011KT 32/14 A2991 RMK A01 T03160141  RH  035%=      5-min Rain = 0
KCL1 171925Z 14011G16KT 32/14 A2991 RMK A01 T03170143  RH  035%=      5-min Rain = 0
KCL1 171926Z 12017KT 32/15 A2991 RMK A01 T03180146  RH  035%=      5-min Rain = 0
KCL1 171927Z 13016G22KT 32/15 A299 RMK A01 T03170146  RH  035%=      5-min Rain = 0
KCL1 171928Z 12013G20KT 32/15 A299 RMK A01 T03170146  RH  036%=      5-min Rain = 0
KCL1 171929Z 14018KT 32/15 A299 RMK A01 T03200148  RH  035%=      5-min Rain = 0
KCL1 171930Z 14020KT 32/15 A299 RMK A01 T03220146  RH  035%=      5-min Rain = 0
KCL1 171931Z 15016G22KT 32/15 A299 RMK A01 T03190146  RH  035%=      5-min Rain = 0
KCL1 171932Z 14012KT 32/15 A299 RMK A01 T03200146  RH  035%=      5-min Rain = 0
KCL1 171933Z 14013KT 32/15 A299 RMK A01 T03220146  RH  034%=      5-min Rain = 0
KCL1 171934Z 14013KT 32/15 A299 RMK A01 T03210147  RH  035%=      5-min Rain = 0
KCL1 171935Z 14010G15KT 32/15 A299 RMK A01 T03220147  RH  035%=      5-min Rain = 0
KCL1 171936Z 18014G22KT 33/15 A299 RMK A01 T03250146  RH  034%=      5-min Rain = 0
KCL1 171937Z 17017KT 33/14 A299 RMK A01 T03270143  RH  033%=      5-min Rain = 0
KCL1 171938Z 15012G17KT 32/14 A299 RMK A01 T03230144  RH  034%=      5-min Rain = 0
KCL1 171939Z 14017G23KT 32/15 A299 RMK A01 T03210145  RH  034%=      5-min Rain = 0
KCL1 171940Z 16015G23KT 32/15 A299 RMK A01 T03220146  RH  034%=      5-min Rain = 0
KCL1 171941Z 15015G23KT 32/15 A299 RMK A01 T03240146  RH  034%=      5-min Rain = 0
KCL1 171942Z 16011KT 32/15 A299 RMK A01 T03190146  RH  035%=      5-min Rain = 0
KCL1 171943Z 16015G21KT 32/15 A299 RMK A01 T03180147  RH  036%=      5-min Rain = 0
KCL1 171944Z 15016G22KT 32/15 A299 RMK A01 T03200146  RH  035%=      5-min Rain = 0
KCL1 171945Z 16014KT 32/15 A299 RMK A01 T03200145  RH  035%=      5-min Rain = 0
KCL1 171946Z 16013G19KT 32/14 A299 RMK A01 T03190144  RH  034%=      5-min Rain = 0
KCL1 171947Z 14014KT 32/14 A299 RMK A01 T03180144  RH  035%=      5-min Rain = 0
KCL1 171948Z 13013G18KT 32/15 A299 RMK A01 T03200146  RH  035%=      5-min Rain = 0
KCL1 171949Z 15012G17KT 32/15 A299 RMK A01 T03240145  RH  034%=      5-min Rain = 0
KCL1 171950Z 19014G20KT 33/15 A299 RMK A01 T03250146  RH  034%=      5-min Rain = 0
KCL1 171951Z 17009KT 32/14 A299 RMK A01 T03230144  RH  034%=      5-min Rain = 0
KCL1 171952Z 14011G17KT 32/15 A299 RMK A01 T03200146  RH  035%=      5-min Rain = 0
KCL1 171953Z 13014KT 32/15 A299 RMK A01 T03240147  RH  034%=      5-min Rain = 0
KCL1 171954Z 15014G19KT 33/15 A299 RMK A01 T03270147  RH  034%=      5-min Rain = 0
KCL1 171955Z 17015KT 33/14 A299 RMK A01 T03280144  RH  033%=      5-min Rain = 0
KCL1 171956Z 17011KT 33/14 A299 RMK A01 T03250144  RH  033%=      5-min Rain = 0
KCL1 171957Z 15013G19KT 33/15 A299 RMK A01 T03270145  RH  033%=      5-min Rain = 0
KCL1 171958Z 17011KT 33/15 A299 RMK A01 T03280146  RH  033%=      5-min Rain = 0
KCL1 171959Z 14016KT 33/15 A2989 RMK A01 T03250145  RH  034%=      5-min Rain = 0
KCL1 172000Z 15013KT 32/15 A299 RMK A01 T03240145  RH  034%=      5-min Rain = 0
KCL1 172001Z 14012KT 33/15 A299 RMK A01 T03250146  RH  034%=      5-min Rain = 0
KCL1 172002Z 14012G18KT 33/15 A299 RMK A01 T03260146  RH  034%=      5-min Rain = 0
KCL1 172003Z 12019G25KT 33/15 A2989 RMK A01 T03250146  RH  034%=      5-min Rain = 0
KCL1 172004Z 15018G28KT 32/15 A2989 RMK A01 T03210145  RH  034%=      5-min Rain = 0
KCL1 172005Z 16013G18KT 32/15 A2989 RMK A01 T03230145  RH  034%=      5-min Rain = 0
KCL1 172006Z 17014KT 32/15 A2989 RMK A01 T03240145  RH  034%=      5-min Rain = 0
KCL1 172007Z 14010G16KT 32/15 A2989 RMK A01 T03230145  RH  034%=      5-min Rain = 0
KCL1 172008Z 13017KT 32/15 A2989 RMK A01 T03230145  RH  034%=      5-min Rain = 0
KCL1 172009Z 11015KT 32/15 A2989 RMK A01 T03220146  RH  034%=      5-min Rain = 0
KCL1 172010Z 11017KT 32/15 A2989 RMK A01 T03220146  RH  034%=      5-min Rain = 0
KCL1 172011Z 17013G18KT 32/15 A2989 RMK A01 T03230145  RH  034%=      5-min Rain = 0
KCL1 172012Z 15013KT 33/15 A2989 RMK A01 T03260145  RH  034%=      5-min Rain = 0
KCL1 172013Z 15012KT 32/14 A2989 RMK A01 T03210142  RH  034%=      5-min Rain = 0
KCL1 172014Z 15012G18KT 31/14 A2989 RMK A01 T03140142  RH  035%=      5-min Rain = 0
KCL1 172015Z 13015KT 31/14 A2989 RMK A01 T03140142  RH  035%=      5-min Rain = 0
KCL1 172016Z 11016KT 32/14 A2989 RMK A01 T03180143  RH  035%=      5-min Rain = 0
KCL1 172017Z 11017G24KT 32/14 A2988 RMK A01 T03200144  RH  034%=      5-min Rain = 0
KCL1 172018Z 13020G25KT 32/15 A2988 RMK A01 T03240146  RH  034%=      5-min Rain = 0
KCL1 172019Z 15015KT 33/15 A2989 RMK A01 T03270145  RH  033%=      5-min Rain = 0
KCL1 172020Z 15015G21KT 33/14 A2988 RMK A01 T03270144  RH  033%=      5-min Rain = 0
KCL1 172021Z 14012KT 32/14 A2989 RMK A01 T03240143  RH  034%=      5-min Rain = 0
KCL1 172022Z 14014G21KT 32/14 A2989 RMK A01 T03200143  RH  034%=      5-min Rain = 0
KCL1 172023Z 13017KT 32/14 A2989 RMK A01 T03170143  RH  035%=      5-min Rain = 0
KCL1 172024Z 12015KT 32/15 A2989 RMK A01 T03160145  RH  036%=      5-min Rain = 0
KCL1 172025Z 12016G21KT 32/15 A2989 RMK A01 T03200145  RH  035%=      5-min Rain = 0
KCL1 172026Z 13015KT 32/15 A2988 RMK A01 T03240146  RH  034%=      5-min Rain = 0
KCL1 172027Z 13019KT 33/15 A2988 RMK A01 T03260145  RH  033%=      5-min Rain = 0
KCL1 172028Z 14020G25KT 33/14 A2988 RMK A01 T03250144  RH  033%=      5-min Rain = 0
KCL1 172029Z 15014KT 32/15 A2988 RMK A01 T03230145  RH  034%=      5-min Rain = 0
KCL1 172030Z 12012G19KT 33/15 A2988 RMK A01 T03260146  RH  034%=      5-min Rain = 0
KCL1 172031Z 14018KT 33/15 A2988 RMK A01 T03300146  RH  033%=      5-min Rain = 0
KCL1 172032Z 16014G19KT 33/15 A2988 RMK A01 T03280146  RH  033%=      5-min Rain = 0
KCL1 172033Z 14012G18KT 33/15 A2988 RMK A01 T03280145  RH  033%=      5-min Rain = 0
KCL1 172034Z 13014KT 33/15 A2988 RMK A01 T03270145  RH  033%=      5-min Rain = 0
KCL1 172035Z 15016G23KT 33/15 A2988 RMK A01 T03280145  RH  033%=      5-min Rain = 0
KCL1 172036Z 13018G24KT 33/14 A2988 RMK A01 T03300144  RH  033%=      5-min Rain = 0
KCL1 172037Z 14015KT 33/14 A2988 RMK A01 T03290144  RH  033%=      5-min Rain = 0
KCL1 172038Z 14015KT 33/14 A2988 RMK A01 T03280144  RH  033%=      5-min Rain = 0
KCL1 172039Z 12017KT 33/14 A2988 RMK A01 T03260143  RH  033%=      5-min Rain = 0
KCL1 172040Z 14017KT 32/14 A2988 RMK A01 T03240142  RH  033%=      5-min Rain = 0
KCL1 172041Z 14013G18KT 32/14 A2988 RMK A01 T03220143  RH  034%=      5-min Rain = 0
KCL1 172042Z 14013KT 32/14 A2987 RMK A01 T03230143  RH  034%=      5-min Rain = 0
KCL1 172043Z 15012KT 33/14 A2987 RMK A01 T03260143  RH  033%=      5-min Rain = 0
KCL1 172044Z 15018G24KT 33/14 A2987 RMK A01 T03280144  RH  033%=      5-min Rain = 0
KCL1 172045Z 14015G21KT 32/14 A2987 RMK A01 T03230141  RH  033%=      5-min Rain = 0
KCL1 172046Z 14018G23KT 32/14 A2987 RMK A01 T03180141  RH  034%=      5-min Rain = 0
KCL1 172047Z 14013KT 32/14 A2987 RMK A01 T03170141  RH  034%=      5-min Rain = 0
KCL1 172048Z 13011G16KT 32/14 A2987 RMK A01 T03170142  RH  035%=      5-min Rain = 0
KCL1 172049Z 14014G22KT 32/14 A2987 RMK A01 T03190142  RH  034%=      5-min Rain = 0
KCL1 172050Z 13019KT 32/14 A2987 RMK A01 T03190142  RH  034%=      5-min Rain = 0
KCL1 172051Z 13012KT 32/14 A2987 RMK A01 T03180142  RH  034%=      5-min Rain = 0
KCL1 172052Z 13017G23KT 32/14 A2987 RMK A01 T03200143  RH  034%=      5-min Rain = 0
KCL1 172053Z 13018KT 32/14 A2987 RMK A01 T03230142  RH  033%=      5-min Rain = 0
KCL1 172054Z 12018G27KT 32/14 A2987 RMK A01 T03240142  RH  033%=      5-min Rain = 0
KCL1 172055Z 12023G28KT 32/14 A2987 RMK A01 T03240142  RH  033%=      5-min Rain = 0
KCL1 172056Z 11023G28KT 32/14 A2987 RMK A01 T03240142  RH  033%=      5-min Rain = 0
KCL1 172057Z 12022KT 32/14 A2986 RMK A01 T03230142  RH  033%=      5-min Rain = 0
KCL1 172058Z 13016G21KT 32/14 A2987 RMK A01 T03210141  RH  034%=      5-min Rain = 0
KCL1 172059Z 12018G23KT 32/14 A2987 RMK A01 T03190142  RH  034%=      5-min Rain = 0
KCL1 172100Z 13019KT 32/14 A2986 RMK A01 T03170140  RH  034%=      5-min Rain = 0
KCL1 172101Z 13015KT 32/14 A2986 RMK A01 T03150141  RH  035%=      5-min Rain = 0
KCL1 172102Z 13019G25KT 32/14 A2986 RMK A01 T03160142  RH  035%=      5-min Rain = 0
KCL1 172103Z 13020KT 32/14 A2986 RMK A01 T03170140  RH  034%=      5-min Rain = 0
KCL1 172104Z 12015KT 32/14 A2986 RMK A01 T03150140  RH  035%=      5-min Rain = 0
KCL1 172105Z 13014KT 31/14 A2986 RMK A01 T03140140  RH  035%=      5-min Rain = 0
KCL1 172106Z 12018G23KT 31/14 A2986 RMK A01 T03140141  RH  035%=      5-min Rain = 0
KCL1 172107Z 12019G25KT 32/14 A2986 RMK A01 T03180142  RH  034%=      5-min Rain = 0
KCL1 172108Z 12024KT 32/14 A2986 RMK A01 T03220141  RH  033%=      5-min Rain = 0
KCL1 172109Z 13019KT 32/14 A2986 RMK A01 T03200140  RH  034%=      5-min Rain = 0
KCL1 172110Z 12018G25KT 32/14 A2985 RMK A01 T03190140  RH  034%=      5-min Rain = 0
KCL1 172111Z 12020G25KT 32/14 A2985 RMK A01 T03200139  RH  033%=      5-min Rain = 0
KCL1 172112Z 11017KT 32/14 A2985 RMK A01 T03190139  RH  034%=      5-min Rain = 0
KCL1 172113Z 12014KT 32/14 A2985 RMK A01 T03190140  RH  034%=      5-min Rain = 0
KCL1 172114Z 11014G20KT 32/14 A2985 RMK A01 T03220141  RH  033%=      5-min Rain = 0
KCL1 172115Z 12018KT 33/14 A2985 RMK A01 T03250140  RH  033%=      5-min Rain = 0
KCL1 172116Z 11016KT 33/14 A2985 RMK A01 T03250140  RH  033%=      5-min Rain = 0
KCL1 172117Z 12019G24KT 33/14 A2985 RMK A01 T03250140  RH  033%=      5-min Rain = 0
KCL1 172118Z 14019KT 33/14 A2985 RMK A01 T03250140  RH  033%=      5-min Rain = 0
KCL1 172119Z 13019KT 32/14 A2985 RMK A01 T03240140  RH  033%=      5-min Rain = 0
KCL1 172120Z 12017KT 32/14 A2984 RMK A01 T03230140  RH  033%=      5-min Rain = 0
KCL1 172121Z 14016G22KT 32/14 A2984 RMK A01 T03210140  RH  033%=      5-min Rain = 0
KCL1 172122Z 14018KT 32/14 A2984 RMK A01 T03220140  RH  033%=      5-min Rain = 0
KCL1 172123Z 13019KT 33/14 A2984 RMK A01 T03250140  RH  033%=      5-min Rain = 0
KCL1 172124Z 13015KT 33/14 A2984 RMK A01 T03270139  RH  032%=      5-min Rain = 0
KCL1 172125Z 14015G20KT 33/14 A2984 RMK A01 T03250140  RH  033%=      5-min Rain = 0
KCL1 172126Z 13016G21KT 33/14 A2983 RMK A01 T03250139  RH  033%=      5-min Rain = 0
KCL1 172127Z 13013KT 32/14 A2983 RMK A01 T03230139  RH  033%=      5-min Rain = 0
KCL1 172128Z 13014G23KT 32/14 A2983 RMK A01 T03220139  RH  033%=      5-min Rain = 0
KCL1 172129Z 12022G29KT 32/14 A2983 RMK A01 T03210137  RH  033%=      5-min Rain = 0
KCL1 172130Z 13020G26KT 32/14 A2983 RMK A01 T03170136  RH  033%=      5-min Rain = 0
KCL1 172131Z 13017KT 32/14 A2983 RMK A01 T03150137  RH  034%=      5-min Rain = 0
KCL1 172132Z 12017G22KT 31/14 A2983 RMK A01 T03120137  RH  034%=      5-min Rain = 0
KCL1 172133Z 12021KT 31/14 A2983 RMK A01 T03110136  RH  035%=      5-min Rain = 0
KCL1 172134Z 13017KT 31/14 A2983 RMK A01 T03080136  RH  035%=      5-min Rain = 0
KCL1 172135Z 13011G18KT 31/14 A2983 RMK A01 T03060136  RH  035%=      5-min Rain = 0
KCL1 172136Z 13017KT 31/14 A2983 RMK A01 T03060137  RH  036%=      5-min Rain = 0
KCL1 172137Z 13014KT 31/14 A2983 RMK A01 T03050136  RH  036%=      5-min Rain = 0
KCL1 172138Z 13012KT 30/14 A2982 RMK A01 T03040137  RH  036%=      5-min Rain = 0
KCL1 172139Z 13015G21KT 30/14 A2982 RMK A01 T03040136  RH  036%=      5-min Rain = 0
KCL1 172140Z 14015G22KT 30/14 A2982 RMK A01 T03040137  RH  036%=      5-min Rain = 0
KCL1 172141Z 14020KT 30/14 A2982 RMK A01 T03040136  RH  036%=      5-min Rain = 0
KCL1 172142Z 13017KT 30/14 A2982 RMK A01 T03030136  RH  036%=      5-min Rain = 0
KCL1 172143Z 12016G22KT 30/14 A2981 RMK A01 T03030136  RH  036%=      5-min Rain = 0
KCL1 172144Z 12016KT 30/14 A2981 RMK A01 T03030135  RH  036%=      5-min Rain = 0
KCL1 172145Z 12017KT 30/14 A2981 RMK A01 T03030136  RH  036%=      5-min Rain = 0
KCL1 172146Z 12017KT 30/14 A2981 RMK A01 T03020135  RH  036%=      5-min Rain = 0
KCL1 172147Z 11014KT 30/14 A2981 RMK A01 T03020135  RH  036%=      5-min Rain = 0
KCL1 172148Z 11014KT 30/14 A298 RMK A01 T03010135  RH  036%=      5-min Rain = 0
KCL1 172149Z 11013KT 30/14 A298 RMK A01 T03010135  RH  036%=      5-min Rain = 0
KCL1 172150Z 12018G24KT 30/14 A298 RMK A01 T03010135  RH  036%=      5-min Rain = 0
KCL1 172151Z 12020KT 30/14 A2979 RMK A01 T03010136  RH  036%=      5-min Rain = 0
KCL1 172152Z 13017KT 30/14 A2979 RMK A01 T03010136  RH  037%=      5-min Rain = 0
KCL1 172153Z 13014KT 30/14 A2979 RMK A01 T03000135  RH  037%=      5-min Rain = 0
KCL1 172154Z 12015KT 30/14 A298 RMK A01 T02990135  RH  037%=      5-min Rain = 0
KCL1 172155Z 12016KT 30/14 A298 RMK A01 T02990136  RH  037%=      5-min Rain = 0
KCL1 172156Z 13017KT 30/14 A298 RMK A01 T02990136  RH  037%=      5-min Rain = 0
KCL1 172157Z 12018G25KT 30/14 A298 RMK A01 T02980135  RH  037%=      5-min Rain = 0
KCL1 172158Z 13021G27KT 30/14 A298 RMK A01 T02980135  RH  037%=      5-min Rain = 0
KCL1 172159Z 13017G22KT 30/14 A298 RMK A01 T02980136  RH  037%=      5-min Rain = 0
KCL1 172200Z 13014G22KT 30/14 A298 RMK A01 T02970136  RH  037%=      5-min Rain = 0
KCL1 172201Z 13016G21KT 30/14 A2981 RMK A01 T02970136  RH  037%=      5-min Rain = 0
KCL1 172202Z 14019G24KT 30/14 A2981 RMK A01 T02960140  RH  038%=      5-min Rain = 0
KCL1 172203Z 13016G24KT 29/16 A2981 RMK A01 T02920155  RH  043%=      5-min Rain = 0
KCL1 172204Z 12016G21KT 28/16 A2981 RMK A01 T02800161  RH  048%=      5-min Rain = 0
KCL1 172205Z 13016G23KT 27/17 A2981 RMK A01 T02670166  RH  054%=      5-min Rain = 0.01
KCL1 172206Z 12017KT 26/17 A2981 RMK A01 T02560165  RH  057%=      5-min Rain = 0.01
KCL1 172207Z 12018KT 25/17 A2981 RMK A01 T02470167  RH  061%=      5-min Rain = 0
KCL1 172208Z 12017G22KT 24/17 A2981 RMK A01 T02430167  RH  063%=      5-min Rain = 0.01
KCL1 172209Z 12018KT 24/17 A2981 RMK A01 T02400167  RH  063%=      5-min Rain = 0
KCL1 172210Z 13016KT 24/17 A2981 RMK A01 T02390167  RH  064%=      5-min Rain = 0.01
KCL1 172211Z 14011KT 24/17 A2981 RMK A01 T02390167  RH  064%=      5-min Rain = 0
KCL1 172212Z 15010KT 24/17 A2982 RMK A01 T02390167  RH  064%=      5-min Rain = 0
KCL1 172213Z 17009KT 24/17 A2982 RMK A01 T02390172  RH  066%=      5-min Rain = 0
KCL1 172214Z 18009KT 24/17 A2983 RMK A01 T02390173  RH  067%=      5-min Rain = 0
KCL1 172215Z 17011KT 24/17 A2983 RMK A01 T02390168  RH  064%=      5-min Rain = 0
KCL1 172216Z 18011KT 24/17 A2983 RMK A01 T02430165  RH  061%=      5-min Rain = 0
KCL1 172217Z 18013G18KT 25/16 A2983 RMK A01 T02490163  RH  059%=      5-min Rain = 0.01
KCL1 172218Z 17015KT 25/16 A2982 RMK A01 T02530163  RH  057%=      5-min Rain = 0
KCL1 172219Z 16012KT 26/16 A2983 RMK A01 T02550161  RH  056%=      5-min Rain = 0
KCL1 172220Z 15011KT 26/17 A2983 RMK A01 T02550166  RH  058%=      5-min Rain = 0
KCL1 172221Z 14012KT 25/17 A2982 RMK A01 T02540165  RH  058%=      5-min Rain = 0
KCL1 172222Z 15014KT 25/17 A2982 RMK A01 T02520167  RH  059%=      5-min Rain = 0
KCL1 172223Z 14014KT 25/17 A2982 RMK A01 T02510169  RH  060%=      5-min Rain = 0
KCL1 172224Z 13017KT 25/17 A2982 RMK A01 T02490169  RH  061%=      5-min Rain = 0
KCL1 172225Z 13015KT 25/17 A2981 RMK A01 T02490170  RH  061%=      5-min Rain = 0
KCL1 172226Z 13020KT 25/17 A2981 RMK A01 T02480167  RH  060%=      5-min Rain = 0
KCL1 172227Z 12019G24KT 25/17 A2981 RMK A01 T02500166  RH  059%=      5-min Rain = 0
KCL1 172228Z 12022KT 25/16 A298 RMK A01 T02520163  RH  058%=      5-min Rain = 0
KCL1 172229Z 12021KT 25/16 A298 RMK A01 T02540164  RH  057%=      5-min Rain = 0
KCL1 172230Z 12020KT 25/17 A2981 RMK A01 T02540165  RH  058%=      5-min Rain = 0
KCL1 172231Z 13019G24KT 25/17 A2981 RMK A01 T02530165  RH  058%=      5-min Rain = 0
KCL1 172232Z 12016KT 25/17 A2981 RMK A01 T02530170  RH  060%=      5-min Rain = 0
KCL1 172233Z 11018G23KT 25/17 A2981 RMK A01 T02510170  RH  061%=      5-min Rain = 0
KCL1 172234Z 12019KT 25/17 A2982 RMK A01 T02490169  RH  061%=      5-min Rain = 0
KCL1 172235Z 13021KT 25/16 A2981 RMK A01 T02490164  RH  059%=      5-min Rain = 0
KCL1 172236Z 14018KT 25/16 A2981 RMK A01 T02520163  RH  058%=      5-min Rain = 0
KCL1 172237Z 13014KT 25/17 A2982 RMK A01 T02540165  RH  058%=      5-min Rain = 0
KCL1 172238Z 12016KT 25/17 A2982 RMK A01 T02540172  RH  060%=      5-min Rain = 0
KCL1 172239Z 11018G23KT 25/17 A2982 RMK A01 T02510173  RH  062%=      5-min Rain = 0
KCL1 172240Z 10018G23KT 25/17 A2981 RMK A01 T02460170  RH  063%=      5-min Rain = 0
KCL1 172241Z 10021KT 24/17 A2981 RMK A01 T02410171  RH  065%=      5-min Rain = 0
KCL1 172242Z 11020G25KT 24/17 A2981 RMK A01 T02390169  RH  065%=      5-min Rain = 0
KCL1 172243Z 10025G31KT 24/17 A2981 RMK A01 T02400168  RH  064%=      5-min Rain = 0
KCL1 172244Z 10024G29KT 24/16 A2981 RMK A01 T02420161  RH  060%=      5-min Rain = 0
KCL1 172245Z 12026G36KT 24/17 A2981 RMK A01 T02440170  RH  063%=      5-min Rain = 0
KCL1 172246Z 13029G34KT 25/17 A2981 RMK A01 T02460171  RH  063%=      5-min Rain = 0
KCL1 172247Z 12026KT 25/17 A2982 RMK A01 T02450173  RH  064%=      5-min Rain = 0
KCL1 172248Z 13023G31KT 24/17 A2982 RMK A01 T02430172  RH  064%=      5-min Rain = 0
KCL1 172249Z 13021KT 24/17 A2982 RMK A01 T02430169  RH  063%=      5-min Rain = 0
KCL1 172250Z 12017KT 24/17 A2982 RMK A01 T02420170  RH  064%=      5-min Rain = 0
KCL1 172251Z 11018KT 24/17 A2982 RMK A01 T02420173  RH  066%=      5-min Rain = 0
KCL1 172252Z 11016KT 24/17 A2982 RMK A01 T02410172  RH  065%=      5-min Rain = 0
KCL1 172253Z 11017KT 24/17 A2981 RMK A01 T02410168  RH  063%=      5-min Rain = 0
KCL1 172254Z 12013KT 24/17 A2981 RMK A01 T02420168  RH  063%=      5-min Rain = 0
KCL1 172255Z 11016KT 24/17 A298 RMK A01 T02440166  RH  062%=      5-min Rain = 0
KCL1 172256Z 11015KT 25/16 A298 RMK A01 T02500160  RH  057%=      5-min Rain = 0
KCL1 172257Z 10016KT 25/17 A298 RMK A01 T02540165  RH  058%=      5-min Rain = 0
KCL1 172258Z 11020KT 26/16 A298 RMK A01 T02550161  RH  056%=      5-min Rain = 0
KCL1 172259Z 11020G25KT 25/16 A298 RMK A01 T02530160  RH  056%=      5-min Rain = 0
KCL1 172300Z 10019KT 25/16 A298 RMK A01 T02510160  RH  057%=      5-min Rain = 0
KCL1 172301Z 10017KT 25/17 A298 RMK A01 T02500165  RH  059%=      5-min Rain = 0
KCL1 172302Z 10018KT 25/17 A2981 RMK A01 T02500170  RH  061%=      5-min Rain = 0
KCL1 172303Z 10018G23KT 25/17 A2981 RMK A01 T02490172  RH  062%=      5-min Rain = 0
KCL1 172304Z 10016KT 25/17 A2982 RMK A01 T02500174  RH  062%=      5-min Rain = 0
KCL1 172305Z 10015KT 25/17 A2982 RMK A01 T02530172  RH  061%=      5-min Rain = 0
KCL1 172306Z 10016KT 26/17 A2982 RMK A01 T02550166  RH  058%=      5-min Rain = 0
KCL1 172307Z 10015KT 26/17 A2983 RMK A01 T02560166  RH  058%=      5-min Rain = 0
KCL1 172308Z 10014KT 26/17 A2983 RMK A01 T02560166  RH  057%=      5-min Rain = 0
KCL1 172309Z 11012G17KT 26/17 A2983 RMK A01 T02570168  RH  058%=      5-min Rain = 0
KCL1 172310Z 10015KT 26/17 A2982 RMK A01 T02570167  RH  057%=      5-min Rain = 0
KCL1 172311Z 10013KT 26/17 A2982 RMK A01 T02570167  RH  057%=      5-min Rain = 0
KCL1 172312Z 10015KT 26/17 A2982 RMK A01 T02570165  RH  057%=      5-min Rain = 0
KCL1 172313Z 10012G17KT 26/17 A2982 RMK A01 T02560166  RH  058%=      5-min Rain = 0
KCL1 172314Z 11014KT 25/17 A2982 RMK A01 T02540169  RH  059%=      5-min Rain = 0
KCL1 172315Z 11011KT 26/17 A2982 RMK A01 T02550166  RH  058%=      5-min Rain = 0
KCL1 172316Z 11014KT 26/17 A2982 RMK A01 T02550170  RH  059%=      5-min Rain = 0
KCL1 172317Z 11014KT 25/17 A2982 RMK A01 T02530168  RH  059%=      5-min Rain = 0
KCL1 172318Z 12013KT 25/17 A2982 RMK A01 T02520171  RH  061%=      5-min Rain = 0
KCL1 172319Z 13014KT 25/17 A2983 RMK A01 T02510169  RH  060%=      5-min Rain = 0
KCL1 172320Z 13012KT 25/17 A2983 RMK A01 T02510168  RH  060%=      5-min Rain = 0
KCL1 172321Z 13013G19KT 25/17 A2983 RMK A01 T02520166  RH  059%=      5-min Rain = 0
KCL1 172322Z 13018G24KT 25/15 A2982 RMK A01 T02540147  RH  052%=      5-min Rain = 0
KCL1 172323Z 14014KT 26/14 A2982 RMK A01 T02560136  RH  048%=      5-min Rain = 0
KCL1 172324Z 12014KT 26/13 A2982 RMK A01 T02570134  RH  047%=      5-min Rain = 0
KCL1 172325Z 13017KT 26/13 A2983 RMK A01 T02580133  RH  046%=      5-min Rain = 0
KCL1 172326Z 13015KT 26/13 A2983 RMK A01 T02580133  RH  046%=      5-min Rain = 0
KCL1 172327Z 13014KT 26/13 A2983 RMK A01 T02580131  RH  045%=      5-min Rain = 0
KCL1 172328Z 13011KT 26/13 A2983 RMK A01 T02580133  RH  046%=      5-min Rain = 0
KCL1 172329Z 13014KT 26/13 A2983 RMK A01 T02580133  RH  046%=      5-min Rain = 0
KCL1 172330Z 13012KT 26/13 A2982 RMK A01 T02570131  RH  046%=      5-min Rain = 0
KCL1 172331Z 15009KT 26/13 A2982 RMK A01 T02570133  RH  046%=      5-min Rain = 0
KCL1 172332Z 15010KT 26/13 A2983 RMK A01 T02560131  RH  046%=      5-min Rain = 0
KCL1 172333Z 13009KT 26/13 A2983 RMK A01 T02560132  RH  046%=      5-min Rain = 0
KCL1 172334Z 13008KT 26/14 A2983 RMK A01 T02560136  RH  047%=      5-min Rain = 0
KCL1 172335Z 13008KT 26/14 A2983 RMK A01 T02550137  RH  048%=      5-min Rain = 0
KCL1 172336Z 13009KT 26/14 A2983 RMK A01 T02550136  RH  048%=      5-min Rain = 0
KCL1 172337Z 13011KT 25/14 A2983 RMK A01 T02540136  RH  048%=      5-min Rain = 0
KCL1 172338Z 14012KT 25/14 A2983 RMK A01 T02540136  RH  048%=      5-min Rain = 0
KCL1 172339Z 14012G17KT 25/14 A2983 RMK A01 T02540139  RH  049%=      5-min Rain = 0
KCL1 172340Z 13012KT 25/14 A2984 RMK A01 T02530143  RH  050%=      5-min Rain = 0
KCL1 172341Z 13011KT 25/15 A2984 RMK A01 T02530146  RH  051%=      5-min Rain = 0
KCL1 172342Z 12015KT 25/15 A2984 RMK A01 T02530151  RH  053%=      5-min Rain = 0
KCL1 172343Z 12012G17KT 25/16 A2984 RMK A01 T02520158  RH  056%=      5-min Rain = 0
KCL1 172344Z 12014G20KT 25/16 A2984 RMK A01 T02510161  RH  057%=      5-min Rain = 0
KCL1 172345Z 12017KT 25/16 A2984 RMK A01 T02500163  RH  059%=      5-min Rain = 0
KCL1 172346Z 12014G19KT 25/16 A2984 RMK A01 T02490164  RH  059%=      5-min Rain = 0
KCL1 172347Z 12015KT 25/17 A2984 RMK A01 T02490165  RH  060%=      5-min Rain = 0
KCL1 172348Z 12014KT 25/17 A2984 RMK A01 T02480167  RH  061%=      5-min Rain = 0
KCL1 172349Z 13012G17KT 25/17 A2984 RMK A01 T02470168  RH  061%=      5-min Rain = 0
KCL1 172350Z 14014KT 25/17 A2984 RMK A01 T02470167  RH  061%=      5-min Rain = 0
KCL1 172351Z 13017G23KT 25/17 A2984 RMK A01 T02470166  RH  061%=      5-min Rain = 0
KCL1 172352Z 14015G20KT 25/17 A2984 RMK A01 T02470166  RH  061%=      5-min Rain = 0
KCL1 172353Z 15013KT 25/16 A2984 RMK A01 T02470163  RH  059%=      5-min Rain = 0
KCL1 172354Z 14014KT 25/16 A2984 RMK A01 T02460157  RH  058%=      5-min Rain = 0
KCL1 172355Z 14015G20KT 25/16 A2984 RMK A01 T02450157  RH  058%=      5-min Rain = 0
KCL1 172356Z 14014G19KT 25/16 A2984 RMK A01 T02450157  RH  058%=      5-min Rain = 0
KCL1 172357Z 13012G17KT 24/16 A2983 RMK A01 T02440155  RH  058%=      5-min Rain = 0
KCL1 172358Z 14014KT 24/15 A2983 RMK A01 T02430151  RH  056%=      5-min Rain = 0
KCL1 172359Z 13015KT 24/15 A2983 RMK A01 T02430146  RH  055%=      5-min Rain = 0
KCL1 180000Z 13016G21KT 24/15 A2983 RMK A01 T02430146  RH  055%=      5-min Rain = 0
KCL1 180001Z 13014G19KT 24/15 A2983 RMK A01 T02430145  RH  054%=      5-min Rain = 0
KCL1 180002Z 13016G21KT 24/14 A2983 RMK A01 T02430144  RH  054%=      5-min Rain = 0
KCL1 180003Z 13015KT 24/14 A2983 RMK A01 T02430143  RH  054%=      5-min Rain = 0
KCL1 180004Z 13020G25KT 24/14 A2983 RMK A01 T02440137  RH  051%=      5-min Rain = 0
KCL1 180005Z 13017KT 25/14 A2983 RMK A01 T02450137  RH  051%=      5-min Rain = 0
KCL1 180006Z 12018G24KT 25/14 A2983 RMK A01 T02450138  RH  051%=      5-min Rain = 0
KCL1 180007Z 11020G25KT 25/14 A2983 RMK A01 T02460137  RH  051%=      5-min Rain = 0
KCL1 180008Z 11021G26KT 25/14 A2983 RMK A01 T02450136  RH  051%=      5-min Rain = 0
KCL1 180009Z 12022G27KT 24/14 A2983 RMK A01 T02440137  RH  051%=      5-min Rain = 0
KCL1 180010Z 11021G26KT 24/14 A2983 RMK A01 T02440139  RH  052%=      5-min Rain = 0
KCL1 180011Z 10020G26KT 24/14 A2983 RMK A01 T02440141  RH  053%=      5-min Rain = 0
KCL1 180012Z 11021G26KT 24/14 A2983 RMK A01 T02430143  RH  053%=      5-min Rain = 0
KCL1 180013Z 10021G29KT 24/15 A2983 RMK A01 T02430148  RH  055%=      5-min Rain = 0
KCL1 180014Z 11028KT 24/15 A2983 RMK A01 T02400153  RH  058%=      5-min Rain = 0
KCL1 180015Z 11026G31KT 24/16 A2982 RMK A01 T02360156  RH  061%=      5-min Rain = 0
KCL1 180016Z 10023KT 23/16 A2982 RMK A01 T02330158  RH  063%=      5-min Rain = 0
KCL1 180017Z 11019G24KT 23/16 A2982 RMK A01 T02320160  RH  064%=      5-min Rain = 0
KCL1 180018Z 11020G26KT 23/16 A2982 RMK A01 T02310161  RH  065%=      5-min Rain = 0
KCL1 180019Z 11025G32KT 23/16 A2982 RMK A01 T02300162  RH  066%=      5-min Rain = 0
KCL1 180020Z 11022G30KT 23/16 A2982 RMK A01 T02290163  RH  066%=      5-min Rain = 0
KCL1 180021Z 11025G33KT 23/16 A2982 RMK A01 T02260164  RH  068%=      5-min Rain = 0
KCL1 180022Z 12021G26KT 23/17 A2982 RMK A01 T02250165  RH  069%=      5-min Rain = 0
KCL1 180023Z 12020KT 22/17 A2983 RMK A01 T02240166  RH  070%=      5-min Rain = 0
KCL1 180024Z 12023KT 22/17 A2982 RMK A01 T02240165  RH  069%=      5-min Rain = 0
KCL1 180025Z 12018KT 22/16 A2982 RMK A01 T02240162  RH  068%=      5-min Rain = 0
KCL1 180026Z 11012KT 23/16 A2982 RMK A01 T02250164  RH  068%=      5-min Rain = 0
KCL1 180027Z 12015KT 23/17 A2983 RMK A01 T02260166  RH  069%=      5-min Rain = 0
KCL1 180028Z 13017KT 23/17 A2983 RMK A01 T02260166  RH  069%=      5-min Rain = 0
KCL1 180029Z 12017G22KT 23/16 A2983 RMK A01 T02270163  RH  067%=      5-min Rain = 0
KCL1 180030Z 13016KT 23/16 A2983 RMK A01 T02270163  RH  067%=      5-min Rain = 0
KCL1 180031Z 13017KT 23/16 A2984 RMK A01 T02280161  RH  066%=      5-min Rain = 0
KCL1 180032Z 14018G24KT 23/16 A2984 RMK A01 T02280160  RH  065%=      5-min Rain = 0
KCL1 180033Z 13021KT 23/16 A2984 RMK A01 T02280158  RH  065%=      5-min Rain = 0
KCL1 180034Z 12020G25KT 23/16 A2984 RMK A01 T02280158  RH  064%=      5-min Rain = 0
KCL1 180035Z 13020KT 23/16 A2984 RMK A01 T02280158  RH  065%=      5-min Rain = 0
KCL1 180036Z 13017G24KT 23/16 A2983 RMK A01 T02270157  RH  064%=      5-min Rain = 0
KCL1 180037Z 13016G21KT 23/16 A2983 RMK A01 T02270158  RH  065%=      5-min Rain = 0
KCL1 180038Z 12019KT 23/16 A2983 RMK A01 T02270157  RH  065%=      5-min Rain = 0
KCL1 180039Z 13022KT 23/16 A2983 RMK A01 T02270156  RH  064%=      5-min Rain = 0
KCL1 180040Z 13016G22KT 23/16 A2983 RMK A01 T02270155  RH  064%=      5-min Rain = 0
KCL1 180041Z 12017KT 23/16 A2983 RMK A01 T02260155  RH  064%=      5-min Rain = 0
KCL1 180042Z 12017KT 23/16 A2983 RMK A01 T02260155  RH  064%=      5-min Rain = 0
KCL1 180043Z 12015G20KT 23/16 A2983 RMK A01 T02260155  RH  064%=      5-min Rain = 0
KCL1 180044Z 11012KT 23/16 A2983 RMK A01 T02260156  RH  065%=      5-min Rain = 0
KCL1 180045Z 12012KT 23/16 A2983 RMK A01 T02260158  RH  065%=      5-min Rain = 0
KCL1 180046Z 12015G20KT 23/16 A2984 RMK A01 T02260157  RH  065%=      5-min Rain = 0
KCL1 180047Z 11012KT 23/16 A2984 RMK A01 T02260157  RH  065%=      5-min Rain = 0
KCL1 180048Z 12015G20KT 23/16 A2984 RMK A01 T02260157  RH  065%=      5-min Rain = 0
KCL1 180049Z 12013KT 23/16 A2984 RMK A01 T02250157  RH  065%=      5-min Rain = 0
KCL1 180050Z 11013KT 22/16 A2984 RMK A01 T02240157  RH  065%=      5-min Rain = 0
KCL1 180051Z 11011KT 22/16 A2984 RMK A01 T02240155  RH  065%=      5-min Rain = 0
KCL1 180052Z 12010KT 22/16 A2984 RMK A01 T02230155  RH  065%=      5-min Rain = 0
KCL1 180053Z 11008G13KT 22/16 A2985 RMK A01 T02230155  RH  065%=      5-min Rain = 0
KCL1 180054Z 12011KT 22/15 A2985 RMK A01 T02240154  RH  065%=      5-min Rain = 0
KCL1 180055Z 12012KT 22/15 A2985 RMK A01 T02240152  RH  064%=      5-min Rain = 0
KCL1 180056Z 13013KT 22/15 A2985 RMK A01 T02230151  RH  063%=      5-min Rain = 0
KCL1 180057Z 13011G16KT 22/15 A2985 RMK A01 T02230150  RH  063%=      5-min Rain = 0
KCL1 180058Z 13012G18KT 22/15 A2985 RMK A01 T02220149  RH  063%=      5-min Rain = 0
KCL1 180059Z 12009KT 22/15 A2985 RMK A01 T02220150  RH  064%=      5-min Rain = 0
KCL1 180100Z 12012KT 22/15 A2985 RMK A01 T02210150  RH  064%=      5-min Rain = 0
KCL1 180101Z 12011G16KT 22/15 A2985 RMK A01 T02210150  RH  064%=      5-min Rain = 0
KCL1 180102Z 12012KT 22/15 A2985 RMK A01 T02200150  RH  064%=      5-min Rain = 0
KCL1 180103Z 12014KT 22/15 A2985 RMK A01 T02190150  RH  065%=      5-min Rain = 0
KCL1 180104Z 11013KT 22/15 A2985 RMK A01 T02190150  RH  065%=      5-min Rain = 0
KCL1 180105Z 12015KT 22/15 A2985 RMK A01 T02180150  RH  065%=      5-min Rain = 0
KCL1 180106Z 12013KT 22/15 A2985 RMK A01 T02170150  RH  066%=      5-min Rain = 0
KCL1 180107Z 12012KT 22/15 A2985 RMK A01 T02170151  RH  066%=      5-min Rain = 0
KCL1 180108Z 12012KT 22/15 A2985 RMK A01 T02160151  RH  067%=      5-min Rain = 0
KCL1 180109Z 12011KT 22/15 A2985 RMK A01 T02160151  RH  067%=      5-min Rain = 0
KCL1 180110Z 11016KT 22/15 A2985 RMK A01 T02160152  RH  067%=      5-min Rain = 0
KCL1 180111Z 12012KT 22/15 A2985 RMK A01 T02150152  RH  067%=      5-min Rain = 0
KCL1 180112Z 11014KT 22/15 A2985 RMK A01 T02150152  RH  067%=      5-min Rain = 0
KCL1 180113Z 11013KT 22/15 A2985 RMK A01 T02150153  RH  068%=      5-min Rain = 0
KCL1 180114Z 12010KT 22/15 A2986 RMK A01 T02150153  RH  068%=      5-min Rain = 0
KCL1 180115Z 12012KT 21/15 A2986 RMK A01 T02140154  RH  068%=      5-min Rain = 0
KCL1 180116Z 12011KT 21/15 A2986 RMK A01 T02140154  RH  068%=      5-min Rain = 0
KCL1 180117Z 12011KT 21/15 A2986 RMK A01 T02140154  RH  069%=      5-min Rain = 0
KCL1 180118Z 12012KT 21/15 A2986 RMK A01 T02140154  RH  069%=      5-min Rain = 0
KCL1 180119Z 12013KT 21/16 A2986 RMK A01 T02140155  RH  069%=      5-min Rain = 0
KCL1 180120Z 12014KT 21/16 A2986 RMK A01 T02130155  RH  069%=      5-min Rain = 0
KCL1 180121Z 11016KT 21/15 A2986 RMK A01 T02130154  RH  069%=      5-min Rain = 0
KCL1 180122Z 11015G20KT 21/15 A2986 RMK A01 T02130152  RH  068%=      5-min Rain = 0
KCL1 180123Z 12018KT 21/15 A2985 RMK A01 T02130151  RH  068%=      5-min Rain = 0
KCL1 180124Z 12017KT 21/15 A2986 RMK A01 T02130150  RH  067%=      5-min Rain = 0
KCL1 180125Z 11019KT 21/15 A2986 RMK A01 T02120149  RH  067%=      5-min Rain = 0
KCL1 180126Z 12018G23KT 21/15 A2986 RMK A01 T02120148  RH  067%=      5-min Rain = 0
KCL1 180127Z 11017G24KT 21/15 A2985 RMK A01 T02120147  RH  067%=      5-min Rain = 0
KCL1 180128Z 11020KT 21/15 A2985 RMK A01 T02120146  RH  066%=      5-min Rain = 0
KCL1 180129Z 11017KT 21/15 A2986 RMK A01 T02120146  RH  066%=      5-min Rain = 0
KCL1 180130Z 11017KT 21/15 A2986 RMK A01 T02120146  RH  066%=      5-min Rain = 0
KCL1 180131Z 11015KT 21/15 A2986 RMK A01 T02110146  RH  067%=      5-min Rain = 0
KCL1 180132Z 11015KT 21/15 A2986 RMK A01 T02100147  RH  067%=      5-min Rain = 0
KCL1 180133Z 11015G20KT 21/15 A2986 RMK A01 T02090146  RH  067%=      5-min Rain = 0
KCL1 180134Z 11016KT 21/15 A2986 RMK A01 T02090146  RH  067%=      5-min Rain = 0
KCL1 180135Z 12016KT 21/15 A2986 RMK A01 T02090146  RH  067%=      5-min Rain = 0
KCL1 180136Z 11016KT 21/15 A2986 RMK A01 T02080146  RH  067%=      5-min Rain = 0
KCL1 180137Z 11012KT 21/15 A2986 RMK A01 T02070146  RH  068%=      5-min Rain = 0
KCL1 180138Z 11013G18KT 21/15 A2986 RMK A01 T02070147  RH  069%=      5-min Rain = 0
KCL1 180139Z 11017G22KT 21/15 A2986 RMK A01 T02060149  RH  070%=      5-min Rain = 0
KCL1 180140Z 11019G25KT 20/15 A2986 RMK A01 T02040148  RH  070%=      5-min Rain = 0
KCL1 180141Z 11017KT 20/15 A2986 RMK A01 T02040147  RH  070%=      5-min Rain = 0
KCL1 180142Z 11017KT 20/15 A2986 RMK A01 T02030147  RH  070%=      5-min Rain = 0
KCL1 180143Z 11018KT 20/15 A2986 RMK A01 T02020147  RH  071%=      5-min Rain = 0
KCL1 180144Z 11017KT 20/15 A2986 RMK A01 T02010148  RH  071%=      5-min Rain = 0
KCL1 180145Z 11017KT 20/15 A2986 RMK A01 T02000148  RH  072%=      5-min Rain = 0
KCL1 180146Z 11015KT 20/15 A2986 RMK A01 T01990147  RH  072%=      5-min Rain = 0
KCL1 180147Z 12015KT 20/15 A2986 RMK A01 T01980148  RH  073%=      5-min Rain = 0
KCL1 180148Z 11013G18KT 20/15 A2986 RMK A01 T01970148  RH  073%=      5-min Rain = 0
KCL1 180149Z 12017KT 20/15 A2986 RMK A01 T01960148  RH  074%=      5-min Rain = 0
KCL1 180150Z 11017KT 20/15 A2986 RMK A01 T01960147  RH  073%=      5-min Rain = 0
KCL1 180151Z 11016G22KT 20/15 A2986 RMK A01 T01960147  RH  073%=      5-min Rain = 0
KCL1 180152Z 11014KT 20/15 A2986 RMK A01 T01960147  RH  073%=      5-min Rain = 0
KCL1 180153Z 12018KT 20/15 A2986 RMK A01 T01960147  RH  073%=      5-min Rain = 0
KCL1 180154Z 11017KT 20/15 A2986 RMK A01 T01960146  RH  073%=      5-min Rain = 0
KCL1 180155Z 11014KT 20/15 A2986 RMK A01 T01970146  RH  072%=      5-min Rain = 0
KCL1 180156Z 12016G22KT 20/15 A2986 RMK A01 T01960146  RH  073%=      5-min Rain = 0
KCL1 180157Z 12014KT 20/15 A2986 RMK A01 T01970147  RH  073%=      5-min Rain = 0
KCL1 180158Z 12016G21KT 20/15 A2986 RMK A01 T01960147  RH  073%=      5-min Rain = 0
KCL1 180159Z 11014KT 20/15 A2986 RMK A01 T01960148  RH  074%=      5-min Rain = 0
KCL1 180200Z 11013KT 20/15 A2986 RMK A01 T01960149  RH  074%=      5-min Rain = 0
KCL1 180201Z 12014KT 20/15 A2986 RMK A01 T01960149  RH  074%=      5-min Rain = 0
KCL1 180202Z 11014KT 20/15 A2986 RMK A01 T01960149  RH  074%=      5-min Rain = 0
KCL1 180203Z 11014KT 20/15 A2986 RMK A01 T01960149  RH  074%=      5-min Rain = 0
KCL1 180204Z 10013KT 20/15 A2986 RMK A01 T01960149  RH  075%=      5-min Rain = 0
KCL1 180205Z 11013KT 20/15 A2986 RMK A01 T01960150  RH  075%=      5-min Rain = 0
KCL1 180206Z 11013KT 20/15 A2987 RMK A01 T01960151  RH  075%=      5-min Rain = 0
KCL1 180207Z 11015KT 20/15 A2987 RMK A01 T01960151  RH  075%=      5-min Rain = 0
KCL1 180208Z 12010KT 20/15 A2987 RMK A01 T01970151  RH  075%=      5-min Rain = 0
KCL1 180209Z 12010KT 20/15 A2987 RMK A01 T01970151  RH  075%=      5-min Rain = 0
KCL1 180210Z 12012KT 20/15 A2987 RMK A01 T01960152  RH  075%=      5-min Rain = 0
KCL1 180211Z 12011KT 20/15 A2988 RMK A01 T01960152  RH  076%=      5-min Rain = 0
KCL1 180212Z 13014KT 20/15 A2988 RMK A01 T01970153  RH  076%=      5-min Rain = 0
KCL1 180213Z 13013KT 20/15 A2988 RMK A01 T01970154  RH  076%=      5-min Rain = 0
KCL1 180214Z 14013KT 20/16 A2989 RMK A01 T01980155  RH  076%=      5-min Rain = 0
KCL1 180215Z 13012KT 20/16 A2989 RMK A01 T01990155  RH  076%=      5-min Rain = 0
KCL1 180216Z 13014G21KT 20/16 A2989 RMK A01 T01990156  RH  076%=      5-min Rain = 0
KCL1 180217Z 13015G20KT 20/16 A2989 RMK A01 T01990158  RH  077%=      5-min Rain = 0
KCL1 180218Z 13013KT 20/16 A2989 RMK A01 T01980158  RH  078%=      5-min Rain = 0
KCL1 180219Z 12019G25KT 20/16 A2989 RMK A01 T01980159  RH  078%=      5-min Rain = 0
KCL1 180220Z 12014KT 20/16 A2989 RMK A01 T01980159  RH  078%=      5-min Rain = 0
KCL1 180221Z 12015KT 20/16 A2989 RMK A01 T01980160  RH  078%=      5-min Rain = 0
KCL1 180222Z 12014KT 20/16 A2989 RMK A01 T01980160  RH  079%=      5-min Rain = 0
KCL1 180223Z 12014G19KT 20/16 A2989 RMK A01 T01980160  RH  079%=      5-min Rain = 0
KCL1 180224Z 12013KT 20/16 A2989 RMK A01 T01970161  RH  079%=      5-min Rain = 0
KCL1 180225Z 12014KT 20/16 A299 RMK A01 T01970161  RH  080%=      5-min Rain = 0
KCL1 180226Z 12010KT 20/16 A299 RMK A01 T01970161  RH  080%=      5-min Rain = 0
KCL1 180227Z 12010KT 20/16 A299 RMK A01 T01970161  RH  080%=      5-min Rain = 0
KCL1 180228Z 12015KT 20/16 A299 RMK A01 T01960161  RH  080%=      5-min Rain = 0
KCL1 180229Z 11013G18KT 20/16 A299 RMK A01 T01960161  RH  080%=      5-min Rain = 0
KCL1 180230Z 11015KT 20/16 A299 RMK A01 T01960161  RH  080%=      5-min Rain = 0
KCL1 180231Z 12014KT 20/16 A299 RMK A01 T01950161  RH  080%=      5-min Rain = 0
KCL1 180232Z 12013G18KT 20/16 A299 RMK A01 T01950160  RH  080%=      5-min Rain = 0
KCL1 180233Z 11016G21KT 20/16 A299 RMK A01 T01950160  RH  080%=      5-min Rain = 0
KCL1 180234Z 12016KT 20/16 A2991 RMK A01 T01950160  RH  080%=      5-min Rain = 0
KCL1 180235Z 11015KT 20/16 A2991 RMK A01 T01950160  RH  080%=      5-min Rain = 0
KCL1 180236Z 12015KT 20/16 A2991 RMK A01 T01950160  RH  080%=      5-min Rain = 0
KCL1 180237Z 12014KT 20/16 A2991 RMK A01 T01950160  RH  080%=      5-min Rain = 0
KCL1 180238Z 11012KT 20/16 A2991 RMK A01 T01950161  RH  081%=      5-min Rain = 0
KCL1 180239Z 11012KT 20/16 A2991 RMK A01 T01950161  RH  081%=      5-min Rain = 0
KCL1 180240Z 11013KT 19/16 A299 RMK A01 T01940161  RH  081%=      5-min Rain = 0
KCL1 180241Z 11014KT 19/16 A299 RMK A01 T01940161  RH  081%=      5-min Rain = 0
KCL1 180242Z 10016KT 19/16 A299 RMK A01 T01940161  RH  081%=      5-min Rain = 0
KCL1 180243Z 11017KT 19/16 A299 RMK A01 T01940161  RH  081%=      5-min Rain = 0
KCL1 180244Z 11014KT 19/16 A299 RMK A01 T01940161  RH  081%=      5-min Rain = 0
KCL1 180245Z 11015G21KT 19/16 A299 RMK A01 T01930161  RH  082%=      5-min Rain = 0
KCL1 180246Z 11018KT 19/16 A299 RMK A01 T01930161  RH  082%=      5-min Rain = 0
KCL1 180247Z 11020KT 19/16 A299 RMK A01 T01930161  RH  082%=      5-min Rain = 0
KCL1 180248Z 11019G24KT 19/16 A299 RMK A01 T01930160  RH  081%=      5-min Rain = 0
KCL1 180249Z 11021KT 19/16 A299 RMK A01 T01920159  RH  081%=      5-min Rain = 0
KCL1 180250Z 12018KT 19/16 A299 RMK A01 T01920157  RH  080%=      5-min Rain = 0
KCL1 180251Z 11016G22KT 19/16 A299 RMK A01 T01920157  RH  080%=      5-min Rain = 0
KCL1 180252Z 11017KT 19/16 A299 RMK A01 T01920158  RH  081%=      5-min Rain = 0
KCL1 180253Z 10015G20KT 19/16 A299 RMK A01 T01920158  RH  081%=      5-min Rain = 0
KCL1 180254Z 10018KT 19/16 A299 RMK A01 T01910159  RH  081%=      5-min Rain = 0
KCL1 180255Z 10016G22KT 19/16 A299 RMK A01 T01910159  RH  082%=      5-min Rain = 0
KCL1 180256Z 11016KT 19/16 A2991 RMK A01 T01900160  RH  082%=      5-min Rain = 0
KCL1 180257Z 11015G21KT 19/16 A2991 RMK A01 T01900160  RH  083%=      5-min Rain = 0
KCL1 180258Z 11020KT 19/16 A2991 RMK A01 T01890159  RH  083%=      5-min Rain = 0
KCL1 180259Z 11015G20KT 19/16 A2991 RMK A01 T01890159  RH  083%=      5-min Rain = 0
KCL1 180300Z 11016G22KT 19/16 A2991 RMK A01 T01890159  RH  083%=      5-min Rain = 0
KCL1 180301Z 11016KT 19/16 A2991 RMK A01 T01890158  RH  082%=      5-min Rain = 0
KCL1 180302Z 12020G27KT 19/16 A2991 RMK A01 T01880156  RH  082%=      5-min Rain = 0
KCL1 180303Z 12020KT 19/16 A2991 RMK A01 T01880155  RH  081%=      5-min Rain = 0
KCL1 180304Z 12016G21KT 19/16 A2991 RMK A01 T01880155  RH  081%=      5-min Rain = 0
KCL1 180305Z 12020G25KT 19/15 A2991 RMK A01 T01880154  RH  081%=      5-min Rain = 0
KCL1 180306Z 12017G22KT 19/15 A2991 RMK A01 T01880154  RH  081%=      5-min Rain = 0
KCL1 180307Z 12019G25KT 19/15 A2991 RMK A01 T01880154  RH  081%=      5-min Rain = 0
KCL1 180308Z 12020G25KT 19/15 A2991 RMK A01 T01880153  RH  080%=      5-min Rain = 0
KCL1 180309Z 12018KT 19/15 A2991 RMK A01 T01870153  RH  080%=      5-min Rain = 0
KCL1 180310Z 12019KT 19/15 A2991 RMK A01 T01870153  RH  080%=      5-min Rain = 0
KCL1 180311Z 12019G26KT 19/15 A2991 RMK A01 T01880154  RH  080%=      5-min Rain = 0
KCL1 180312Z 12023G28KT 19/15 A2991 RMK A01 T01870153  RH  081%=      5-min Rain = 0
KCL1 180313Z 13022G28KT 19/15 A2991 RMK A01 T01870153  RH  081%=      5-min Rain = 0
KCL1 180314Z 12022G27KT 19/15 A2991 RMK A01 T01870153  RH  081%=      5-min Rain = 0
KCL1 180315Z 13022G27KT 19/15 A2991 RMK A01 T01870153  RH  081%=      5-min Rain = 0
KCL1 180316Z 12021KT 19/15 A2991 RMK A01 T01870153  RH  081%=      5-min Rain = 0
KCL1 180317Z 13022KT 19/15 A2991 RMK A01 T01870153  RH  081%=      5-min Rain = 0
KCL1 180318Z 12016G21KT 19/15 A2991 RMK A01 T01870153  RH  081%=      5-min Rain = 0
KCL1 180319Z 12017KT 19/15 A2991 RMK A01 T01860153  RH  081%=      5-min Rain = 0
KCL1 180320Z 12019G27KT 19/15 A2991 RMK A01 T01860153  RH  081%=      5-min Rain = 0
KCL1 180321Z 12021G28KT 19/15 A2991 RMK A01 T01860153  RH  081%=      5-min Rain = 0
KCL1 180322Z 12019G24KT 19/15 A2991 RMK A01 T01860152  RH  081%=      5-min Rain = 0
KCL1 180323Z 12016G21KT 19/15 A2991 RMK A01 T01860152  RH  081%=      5-min Rain = 0
KCL1 180324Z 13013KT 19/15 A2991 RMK A01 T01870153  RH  081%=      5-min Rain = 0
KCL1 180325Z 13014KT 19/15 A2991 RMK A01 T01860153  RH  081%=      5-min Rain = 0
KCL1 180326Z 13016G21KT 19/15 A299 RMK A01 T01860152  RH  081%=      5-min Rain = 0
KCL1 180327Z 12018KT 19/15 A299 RMK A01 T01860152  RH  081%=      5-min Rain = 0
KCL1 180328Z 13014G19KT 19/15 A299 RMK A01 T01860152  RH  081%=      5-min Rain = 0
KCL1 180329Z 12016KT 19/15 A299 RMK A01 T01860152  RH  080%=      5-min Rain = 0
KCL1 180330Z 12016G21KT 19/15 A299 RMK A01 T01870152  RH  081%=      5-min Rain = 0
KCL1 180331Z 12019KT 19/15 A299 RMK A01 T01870152  RH  080%=      5-min Rain = 0
KCL1 180332Z 12018G24KT 19/15 A299 RMK A01 T01870152  RH  080%=      5-min Rain = 0
KCL1 180333Z 12018G24KT 19/15 A2991 RMK A01 T01870152  RH  080%=      5-min Rain = 0
KCL1 180334Z 12019G25KT 19/15 A2991 RMK A01 T01880152  RH  080%=      5-min Rain = 0
KCL1 180335Z 12019KT 19/15 A299 RMK A01 T01880152  RH  080%=      5-min Rain = 0
KCL1 180336Z 12015KT 19/15 A299 RMK A01 T01880152  RH  080%=      5-min Rain = 0
KCL1 180337Z 12023G29KT 19/15 A2991 RMK A01 T01880152  RH  080%=      5-min Rain = 0
KCL1 180338Z 12018KT 19/15 A2991 RMK A01 T01890153  RH  079%=      5-min Rain = 0
KCL1 180339Z 13014G19KT 19/15 A2991 RMK A01 T01900153  RH  079%=      5-min Rain = 0
KCL1 180340Z 13018G23KT 19/15 A2991 RMK A01 T01900153  RH  079%=      5-min Rain = 0
KCL1 180341Z 13016G21KT 19/15 A2991 RMK A01 T01890153  RH  079%=      5-min Rain = 0
KCL1 180342Z 14014KT 19/15 A2992 RMK A01 T01890153  RH  079%=      5-min Rain = 0
KCL1 180343Z 14014KT 19/15 A2992 RMK A01 T01890153  RH  080%=      5-min Rain = 0
KCL1 180344Z 14014KT 19/15 A2992 RMK A01 T01890153  RH  080%=      5-min Rain = 0
KCL1 180345Z 14014KT 19/15 A2992 RMK A01 T01890154  RH  080%=      5-min Rain = 0
KCL1 180346Z 14014G20KT 19/15 A2992 RMK A01 T01880154  RH  080%=      5-min Rain = 0
KCL1 180347Z 15015KT 19/15 A2992 RMK A01 T01880153  RH  080%=      5-min Rain = 0
KCL1 180348Z 13016KT 19/15 A2992 RMK A01 T01880153  RH  080%=      5-min Rain = 0
KCL1 180349Z 14014KT 19/15 A2992 RMK A01 T01880153  RH  080%=      5-min Rain = 0
KCL1 180350Z 13014KT 19/15 A2992 RMK A01 T01870153  RH  081%=      5-min Rain = 0
KCL1 180351Z 13018G23KT 19/15 A2992 RMK A01 T01870152  RH  080%=      5-min Rain = 0
KCL1 180352Z 14015G21KT 19/15 A2992 RMK A01 T01870152  RH  080%=      5-min Rain = 0
KCL1 180353Z 13018G23KT 19/15 A2992 RMK A01 T01870151  RH  080%=      5-min Rain = 0
KCL1 180354Z 13019KT 19/15 A2991 RMK A01 T01870151  RH  079%=      5-min Rain = 0
KCL1 180355Z 14017G25KT 19/15 A2991 RMK A01 T01860150  RH  080%=      5-min Rain = 0
KCL1 180356Z 13020G25KT 19/15 A2991 RMK A01 T01860150  RH  080%=      5-min Rain = 0
KCL1 180357Z 14021G27KT 19/15 A2991 RMK A01 T01850150  RH  080%=      5-min Rain = 0
KCL1 180358Z 14018G24KT 19/15 A2991 RMK A01 T01850149  RH  079%=      5-min Rain = 0
KCL1 180359Z 14020G25KT 19/15 A2991 RMK A01 T01850150  RH  080%=      5-min Rain = 0
KCL1 180400Z 13018G24KT 19/15 A2991 RMK A01 T01850149  RH  080%=      5-min Rain = 0
KCL1 180401Z 13018KT 19/15 A2991 RMK A01 T01850150  RH  080%=      5-min Rain = 0
KCL1 180402Z 13018G23KT 18/15 A2991 RMK A01 T01840150  RH  080%=      5-min Rain = 0
KCL1 180403Z 14018KT 18/15 A2991 RMK A01 T01840150  RH  080%=      5-min Rain = 0
KCL1 180404Z 13018KT 18/15 A2991 RMK A01 T01840150  RH  081%=      5-min Rain = 0
KCL1 180405Z 13019G25KT 18/15 A299 RMK A01 T01840150  RH  081%=      5-min Rain = 0
KCL1 180406Z 13020G26KT 18/15 A299 RMK A01 T01840150  RH  081%=      5-min Rain = 0
KCL1 180407Z 13019G27KT 18/15 A299 RMK A01 T01840150  RH  080%=      5-min Rain = 0
KCL1 180408Z 13022G27KT 18/15 A299 RMK A01 T01840150  RH  081%=      5-min Rain = 0
KCL1 180409Z 14019G24KT 18/15 A299 RMK A01 T01840150  RH  081%=      5-min Rain = 0
KCL1 180410Z 14017KT 18/15 A2991 RMK A01 T01840150  RH  081%=      5-min Rain = 0
KCL1 180411Z 14016KT 18/15 A2991 RMK A01 T01830150  RH  081%=      5-min Rain = 0
KCL1 180412Z 14019G24KT 18/15 A299 RMK A01 T01830150  RH  081%=      5-min Rain = 0
KCL1 180413Z 14018G25KT 18/15 A2991 RMK A01 T01830151  RH  081%=      5-min Rain = 0
KCL1 180414Z 14018KT 18/15 A299 RMK A01 T01820151  RH  082%=      5-min Rain = 0
KCL1 180415Z 14017KT 18/15 A299 RMK A01 T01820151  RH  082%=      5-min Rain = 0
KCL1 180416Z 14020G25KT 18/15 A2991 RMK A01 T01820150  RH  082%=      5-min Rain = 0
KCL1 180417Z 14020G25KT 18/15 A2991 RMK A01 T01820150  RH  081%=      5-min Rain = 0
KCL1 180418Z 14021KT 18/15 A299 RMK A01 T01820149  RH  081%=      5-min Rain = 0
KCL1 180419Z 14021G26KT 18/15 A299 RMK A01 T01820149  RH  081%=      5-min Rain = 0
KCL1 180420Z 14020G25KT 18/15 A299 RMK A01 T01820148  RH  080%=      5-min Rain = 0
KCL1 180421Z 13021G27KT 18/15 A2991 RMK A01 T01820148  RH  080%=      5-min Rain = 0
KCL1 180422Z 14017G23KT 18/15 A2991 RMK A01 T01820148  RH  080%=      5-min Rain = 0
KCL1 180423Z 14016G23KT 18/15 A2991 RMK A01 T01820148  RH  080%=      5-min Rain = 0
KCL1 180424Z 14018G26KT 18/15 A2991 RMK A01 T01820148  RH  081%=      5-min Rain = 0
KCL1 180425Z 14020KT 18/15 A2991 RMK A01 T01810148  RH  081%=      5-min Rain = 0
KCL1 180426Z 13014G20KT 18/15 A2991 RMK A01 T01810148  RH  081%=      5-min Rain = 0
KCL1 180427Z 14017G24KT 18/15 A2991 RMK A01 T01810148  RH  081%=      5-min Rain = 0
KCL1 180428Z 13015G20KT 18/15 A2991 RMK A01 T01800148  RH  081%=      5-min Rain = 0
KCL1 180429Z 14019G24KT 18/15 A2991 RMK A01 T01800148  RH  082%=      5-min Rain = 0
KCL1 180430Z 14017KT 18/15 A2991 RMK A01 T01790147  RH  082%=      5-min Rain = 0
KCL1 180431Z 14015G22KT 18/15 A2991 RMK A01 T01790147  RH  081%=      5-min Rain = 0
KCL1 180432Z 14014KT 18/15 A2991 RMK A01 T01790147  RH  082%=      5-min Rain = 0
KCL1 180433Z 14015KT 18/15 A2991 RMK A01 T01780147  RH  082%=      5-min Rain = 0
KCL1 180434Z 15014KT 18/15 A2991 RMK A01 T01780146  RH  081%=      5-min Rain = 0
KCL1 180435Z 15013G18KT 18/15 A2991 RMK A01 T01780145  RH  081%=      5-min Rain = 0
KCL1 180436Z 15017KT 18/15 A2991 RMK A01 T01780146  RH  081%=      5-min Rain = 0
KCL1 180437Z 14017G23KT 18/15 A2991 RMK A01 T01780145  RH  081%=      5-min Rain = 0
KCL1 180438Z 14018G23KT 18/14 A2991 RMK A01 T01770144  RH  081%=      5-min Rain = 0
KCL1 180439Z 14014G21KT 18/14 A2991 RMK A01 T01770144  RH  081%=      5-min Rain = 0
KCL1 180440Z 14011KT 18/14 A2991 RMK A01 T01770144  RH  081%=      5-min Rain = 0
KCL1 180441Z 14015G20KT 18/14 A2991 RMK A01 T01760144  RH  081%=      5-min Rain = 0
KCL1 180442Z 15016KT 18/14 A2991 RMK A01 T01760144  RH  081%=      5-min Rain = 0
KCL1 180443Z 14016KT 18/14 A2991 RMK A01 T01760144  RH  081%=      5-min Rain = 0
KCL1 180444Z 15012KT 18/14 A2991 RMK A01 T01760144  RH  082%=      5-min Rain = 0
KCL1 180445Z 14013G18KT 18/14 A2991 RMK A01 T01750144  RH  082%=      5-min Rain = 0
KCL1 180446Z 14012KT 18/14 A2991 RMK A01 T01750144  RH  082%=      5-min Rain = 0
KCL1 180447Z 15014KT 17/14 A2991 RMK A01 T01740144  RH  082%=      5-min Rain = 0
KCL1 180448Z 14016KT 17/14 A2991 RMK A01 T01740143  RH  082%=      5-min Rain = 0
KCL1 180449Z 14017G22KT 18/14 A299 RMK A01 T01750142  RH  081%=      5-min Rain = 0
KCL1 180450Z 14014KT 18/14 A299 RMK A01 T01750143  RH  081%=      5-min Rain = 0
KCL1 180451Z 13017KT 18/14 A299 RMK A01 T01750143  RH  081%=      5-min Rain = 0
KCL1 180452Z 14017G23KT 17/14 A299 RMK A01 T01740141  RH  080%=      5-min Rain = 0
KCL1 180453Z 14015KT 18/14 A299 RMK A01 T01750140  RH  080%=      5-min Rain = 0
KCL1 180454Z 14018G26KT 18/14 A299 RMK A01 T01750140  RH  080%=      5-min Rain = 0
KCL1 180455Z 14017G22KT 18/14 A299 RMK A01 T01750140  RH  080%=      5-min Rain = 0
KCL1 180456Z 14020KT 18/14 A299 RMK A01 T01750140  RH  080%=      5-min Rain = 0
KCL1 180457Z 14020KT 18/14 A299 RMK A01 T01750139  RH  079%=      5-min Rain = 0
KCL1 180458Z 14016KT 18/14 A299 RMK A01 T01760139  RH  079%=      5-min Rain = 0
KCL1 180459Z 14016G21KT 18/14 A299 RMK A01 T01760139  RH  079%=      5-min Rain = 0

Page generated in 0.0793 seconds.